<?xml version="1.0" encoding="UTF-8" standalone="no" ?>
<gpx xmlns="http://www.topografix.com/GPX/1/1" xmlns:xsi="http://www.w3.org/2001/XMLSchema-instance" xsi:schemaLocation="http://www.topografix.com/GPX/1/1 http://www.topografix.com/GPX/1/1/gpx.xsd" version="1.1" creator="VisuGPX - https://www.visugpx.com">
  <metadata>
    <name>Seb le grand chene 30kms</name>
  </metadata>
  <trk>
    <name><![CDATA[le grand chene 30kms]]></name>
    <trkseg>
      <trkpt lat="46.0043" lon="3.57093">
        <ele>624.4</ele>
      </trkpt>
      <trkpt lat="46.00283" lon="3.56961">
        <ele>602.6</ele>
      </trkpt>
      <trkpt lat="46.00282" lon="3.57019">
        <ele>602.2</ele>
      </trkpt>
      <trkpt lat="46.00237" lon="3.57054">
        <ele>604.8</ele>
      </trkpt>
      <trkpt lat="46.00167" lon="3.57013">
        <ele>604.9</ele>
      </trkpt>
      <trkpt lat="46.00091" lon="3.56916">
        <ele>602.2</ele>
      </trkpt>
      <trkpt lat="46.00057" lon="3.56781">
        <ele>601.1</ele>
      </trkpt>
      <trkpt lat="45.99993" lon="3.56689">
        <ele>593.1</ele>
      </trkpt>
      <trkpt lat="45.9994" lon="3.56669">
        <ele>589.3</ele>
      </trkpt>
      <trkpt lat="45.99926" lon="3.56605">
        <ele>582.9</ele>
      </trkpt>
      <trkpt lat="45.99929" lon="3.56549">
        <ele>576.5</ele>
      </trkpt>
      <trkpt lat="45.99902" lon="3.56509">
        <ele>571.9</ele>
      </trkpt>
      <trkpt lat="45.99934" lon="3.56483">
        <ele>579.9978</ele>
        <time>2011-10-08T15:20:09Z</time>
      </trkpt>
      <trkpt lat="45.99916" lon="3.56491">
        <ele>579.9837</ele>
        <time>2011-10-08T15:20:02Z</time>
      </trkpt>
      <trkpt lat="45.99899" lon="3.56506">
        <ele>579.90826</ele>
        <time>2011-10-08T15:19:56Z</time>
      </trkpt>
      <trkpt lat="45.99881" lon="3.56519">
        <ele>576.91644</ele>
        <time>2011-10-08T15:19:43Z</time>
      </trkpt>
      <trkpt lat="45.99863" lon="3.56536">
        <ele>575.9278</ele>
        <time>2011-10-08T15:19:38Z</time>
      </trkpt>
      <trkpt lat="45.99844" lon="3.56549">
        <ele>575.45917</ele>
        <time>2011-10-08T15:19:31Z</time>
      </trkpt>
      <trkpt lat="45.9983" lon="3.56566">
        <ele>574.2907</ele>
        <time>2011-10-08T15:19:27Z</time>
      </trkpt>
      <trkpt lat="45.99816" lon="3.5659">
        <ele>573.65204</ele>
        <time>2011-10-08T15:19:24Z</time>
      </trkpt>
      <trkpt lat="45.99799" lon="3.56603">
        <ele>573.17523</ele>
        <time>2011-10-08T15:19:21Z</time>
      </trkpt>
      <trkpt lat="45.99781" lon="3.56618">
        <ele>573.41534</ele>
        <time>2011-10-08T15:19:18Z</time>
      </trkpt>
      <trkpt lat="45.99762" lon="3.56635">
        <ele>575.6955</ele>
        <time>2011-10-08T15:19:14Z</time>
      </trkpt>
      <trkpt lat="45.99745" lon="3.5665">
        <ele>578.24744</ele>
        <time>2011-10-08T15:19:10Z</time>
      </trkpt>
      <trkpt lat="45.99725" lon="3.56659">
        <ele>579.31836</ele>
        <time>2011-10-08T15:19:05Z</time>
      </trkpt>
      <trkpt lat="45.99705" lon="3.56672">
        <ele>580.0193</ele>
        <time>2011-10-08T15:18:57Z</time>
      </trkpt>
      <trkpt lat="45.99687" lon="3.56676">
        <ele>580.3429</ele>
        <time>2011-10-08T15:18:47Z</time>
      </trkpt>
      <trkpt lat="45.99669" lon="3.56678">
        <ele>581.8361</ele>
        <time>2011-10-08T15:18:35Z</time>
      </trkpt>
      <trkpt lat="45.99656" lon="3.56697">
        <ele>583.14716</ele>
        <time>2011-10-08T15:18:26Z</time>
      </trkpt>
      <trkpt lat="45.99646" lon="3.56721">
        <ele>584.4701</ele>
        <time>2011-10-08T15:18:18Z</time>
      </trkpt>
      <trkpt lat="45.99645" lon="3.56749">
        <ele>586.8216</ele>
        <time>2011-10-08T15:17:55Z</time>
      </trkpt>
      <trkpt lat="45.99627" lon="3.56757">
        <ele>585.99756</ele>
        <time>2011-10-08T15:17:49Z</time>
      </trkpt>
      <trkpt lat="45.99605" lon="3.56751">
        <ele>584.9362</ele>
        <time>2011-10-08T15:17:44Z</time>
      </trkpt>
      <trkpt lat="45.99584" lon="3.56745">
        <ele>584.64166</ele>
        <time>2011-10-08T15:17:38Z</time>
      </trkpt>
      <trkpt lat="45.99563" lon="3.56749">
        <ele>583.4901</ele>
        <time>2011-10-08T15:17:33Z</time>
      </trkpt>
      <trkpt lat="45.99543" lon="3.56757">
        <ele>581.93164</ele>
        <time>2011-10-08T15:17:29Z</time>
      </trkpt>
      <trkpt lat="45.99526" lon="3.56775">
        <ele>580.9939</ele>
        <time>2011-10-08T15:17:25Z</time>
      </trkpt>
      <trkpt lat="45.99509" lon="3.5679">
        <ele>579.6151</ele>
        <time>2011-10-08T15:17:22Z</time>
      </trkpt>
      <trkpt lat="45.99488" lon="3.56798">
        <ele>577.71735</ele>
        <time>2011-10-08T15:17:19Z</time>
      </trkpt>
      <trkpt lat="45.9947" lon="3.56811">
        <ele>575.70044</ele>
        <time>2011-10-08T15:17:16Z</time>
      </trkpt>
      <trkpt lat="45.99456" lon="3.56833">
        <ele>574.6973</ele>
        <time>2011-10-08T15:17:13Z</time>
      </trkpt>
      <trkpt lat="45.99446" lon="3.56856">
        <ele>574.2826</ele>
        <time>2011-10-08T15:17:10Z</time>
      </trkpt>
      <trkpt lat="45.99429" lon="3.56878">
        <ele>573.63275</ele>
        <time>2011-10-08T15:17:07Z</time>
      </trkpt>
      <trkpt lat="45.99414" lon="3.56899">
        <ele>573.4628</ele>
        <time>2011-10-08T15:17:04Z</time>
      </trkpt>
      <trkpt lat="45.99403" lon="3.56927">
        <ele>574.23016</ele>
        <time>2011-10-08T15:16:58Z</time>
      </trkpt>
      <trkpt lat="45.99401" lon="3.56953">
        <ele>574.63654</ele>
        <time>2011-10-08T15:16:53Z</time>
      </trkpt>
      <trkpt lat="45.99389" lon="3.56974">
        <ele>574.1385</ele>
        <time>2011-10-08T15:16:50Z</time>
      </trkpt>
      <trkpt lat="45.9937" lon="3.56989">
        <ele>572.9579</ele>
        <time>2011-10-08T15:16:47Z</time>
      </trkpt>
      <trkpt lat="45.99351" lon="3.57008">
        <ele>571.0397</ele>
        <time>2011-10-08T15:16:43Z</time>
      </trkpt>
      <trkpt lat="45.99338" lon="3.57038">
        <ele>568.5082</ele>
        <time>2011-10-08T15:16:39Z</time>
      </trkpt>
      <trkpt lat="45.99325" lon="3.5706">
        <ele>566.542</ele>
        <time>2011-10-08T15:16:31Z</time>
      </trkpt>
      <trkpt lat="45.99311" lon="3.57081">
        <ele>564.5858</ele>
        <time>2011-10-08T15:16:23Z</time>
      </trkpt>
      <trkpt lat="45.99301" lon="3.57105">
        <ele>563.0232</ele>
        <time>2011-10-08T15:16:15Z</time>
      </trkpt>
      <trkpt lat="45.99294" lon="3.57133">
        <ele>561.1327</ele>
        <time>2011-10-08T15:16:05Z</time>
      </trkpt>
      <trkpt lat="45.99283" lon="3.57154">
        <ele>559.82794</ele>
        <time>2011-10-08T15:15:57Z</time>
      </trkpt>
      <trkpt lat="45.99263" lon="3.57157">
        <ele>558.6146</ele>
        <time>2011-10-08T15:15:49Z</time>
      </trkpt>
      <trkpt lat="45.99245" lon="3.57157">
        <ele>557.31116</ele>
        <time>2011-10-08T15:15:41Z</time>
      </trkpt>
      <trkpt lat="45.99234" lon="3.57178">
        <ele>554.00037</ele>
        <time>2011-10-08T15:14:12Z</time>
      </trkpt>
      <trkpt lat="45.99223" lon="3.57199">
        <ele>554.0091</ele>
        <time>2011-10-08T15:14:01Z</time>
      </trkpt>
      <trkpt lat="45.99217" lon="3.57227">
        <ele>554.16187</ele>
        <time>2011-10-08T15:13:51Z</time>
      </trkpt>
      <trkpt lat="45.99227" lon="3.57253">
        <ele>554.9094</ele>
        <time>2011-10-08T15:13:45Z</time>
      </trkpt>
      <trkpt lat="45.99213" lon="3.57275">
        <ele>556.7211</ele>
        <time>2011-10-08T15:13:40Z</time>
      </trkpt>
      <trkpt lat="45.992" lon="3.57296">
        <ele>556.8784</ele>
        <time>2011-10-08T15:13:35Z</time>
      </trkpt>
      <trkpt lat="45.99208" lon="3.5732">
        <ele>556.4877</ele>
        <time>2011-10-08T15:13:30Z</time>
      </trkpt>
      <trkpt lat="45.99219" lon="3.57341">
        <ele>555.38074</ele>
        <time>2011-10-08T15:13:26Z</time>
      </trkpt>
      <trkpt lat="45.99212" lon="3.57367">
        <ele>554.8206</ele>
        <time>2011-10-08T15:13:22Z</time>
      </trkpt>
      <trkpt lat="45.99198" lon="3.57388">
        <ele>554.433</ele>
        <time>2011-10-08T15:13:18Z</time>
      </trkpt>
      <trkpt lat="45.99184" lon="3.5741">
        <ele>553.20795</ele>
        <time>2011-10-08T15:13:14Z</time>
      </trkpt>
      <trkpt lat="45.99172" lon="3.57435">
        <ele>552.76373</ele>
        <time>2011-10-08T15:13:08Z</time>
      </trkpt>
      <trkpt lat="45.99161" lon="3.57457">
        <ele>552.00757</ele>
        <time>2011-10-08T15:13:01Z</time>
      </trkpt>
      <trkpt lat="45.99152" lon="3.57481">
        <ele>552.0754</ele>
        <time>2011-10-08T15:12:53Z</time>
      </trkpt>
      <trkpt lat="45.99154" lon="3.57508">
        <ele>552.42365</ele>
        <time>2011-10-08T15:12:47Z</time>
      </trkpt>
      <trkpt lat="45.9916" lon="3.57534">
        <ele>553.01337</ele>
        <time>2011-10-08T15:12:40Z</time>
      </trkpt>
      <trkpt lat="45.99156" lon="3.5756">
        <ele>553.1335</ele>
        <time>2011-10-08T15:12:32Z</time>
      </trkpt>
      <trkpt lat="45.99137" lon="3.57569">
        <ele>553.4219</ele>
        <time>2011-10-08T15:12:28Z</time>
      </trkpt>
      <trkpt lat="45.99116" lon="3.57577">
        <ele>554</ele>
        <time>2011-10-08T15:12:23Z</time>
      </trkpt>
      <trkpt lat="45.99098" lon="3.5759">
        <ele>554</ele>
        <time>2011-10-08T15:12:18Z</time>
      </trkpt>
      <trkpt lat="45.99083" lon="3.57609">
        <ele>553.1013</ele>
        <time>2011-10-08T15:11:06Z</time>
      </trkpt>
      <trkpt lat="45.99079" lon="3.57635">
        <ele>551.73047</ele>
        <time>2011-10-08T15:10:56Z</time>
      </trkpt>
      <trkpt lat="45.99068" lon="3.57659">
        <ele>550.4275</ele>
        <time>2011-10-08T15:10:46Z</time>
      </trkpt>
      <trkpt lat="45.99053" lon="3.57678">
        <ele>549.25037</ele>
        <time>2011-10-08T15:10:31Z</time>
      </trkpt>
      <trkpt lat="45.99034" lon="3.57693">
        <ele>549.0215</ele>
        <time>2011-10-08T15:10:17Z</time>
      </trkpt>
      <trkpt lat="45.99015" lon="3.57706">
        <ele>550.2064</ele>
        <time>2011-10-08T15:10:03Z</time>
      </trkpt>
      <trkpt lat="45.98998" lon="3.57687">
        <ele>558.88983</ele>
        <time>2011-10-08T15:09:55Z</time>
      </trkpt>
      <trkpt lat="45.98994" lon="3.57659">
        <ele>563.2486</ele>
        <time>2011-10-08T15:09:53Z</time>
      </trkpt>
      <trkpt lat="45.98991" lon="3.57629">
        <ele>566.7753</ele>
        <time>2011-10-08T15:09:51Z</time>
      </trkpt>
      <trkpt lat="45.98985" lon="3.57594">
        <ele>568.6896</ele>
        <time>2011-10-08T15:09:48Z</time>
      </trkpt>
      <trkpt lat="45.98975" lon="3.57573">
        <ele>568.7455</ele>
        <time>2011-10-08T15:09:43Z</time>
      </trkpt>
      <trkpt lat="45.98955" lon="3.5756">
        <ele>567.82806</ele>
        <time>2011-10-08T15:09:35Z</time>
      </trkpt>
      <trkpt lat="45.98937" lon="3.57547">
        <ele>567.0339</ele>
        <time>2011-10-08T15:09:29Z</time>
      </trkpt>
      <trkpt lat="45.98919" lon="3.57534">
        <ele>567.1903</ele>
        <time>2011-10-08T15:09:23Z</time>
      </trkpt>
      <trkpt lat="45.98899" lon="3.57526">
        <ele>567.80194</ele>
        <time>2011-10-08T15:09:18Z</time>
      </trkpt>
      <trkpt lat="45.98881" lon="3.57534">
        <ele>568.16406</ele>
        <time>2011-10-08T15:09:14Z</time>
      </trkpt>
      <trkpt lat="45.98861" lon="3.57545">
        <ele>569.1112</ele>
        <time>2011-10-08T15:09:10Z</time>
      </trkpt>
      <trkpt lat="45.98843" lon="3.57553">
        <ele>570.3006</ele>
        <time>2011-10-08T15:09:07Z</time>
      </trkpt>
      <trkpt lat="45.98819" lon="3.57551">
        <ele>571.99945</ele>
        <time>2011-10-08T15:09:03Z</time>
      </trkpt>
      <trkpt lat="45.98799" lon="3.57549">
        <ele>571.9971</ele>
        <time>2011-10-08T15:08:57Z</time>
      </trkpt>
      <trkpt lat="45.98778" lon="3.57551">
        <ele>571.9907</ele>
        <time>2011-10-08T15:08:53Z</time>
      </trkpt>
      <trkpt lat="45.98757" lon="3.57556">
        <ele>571.9608</ele>
        <time>2011-10-08T15:08:48Z</time>
      </trkpt>
      <trkpt lat="45.98737" lon="3.57566">
        <ele>571.77997</ele>
        <time>2011-10-08T15:08:42Z</time>
      </trkpt>
      <trkpt lat="45.98719" lon="3.57584">
        <ele>571.3047</ele>
        <time>2011-10-08T15:08:38Z</time>
      </trkpt>
      <trkpt lat="45.98705" lon="3.57603">
        <ele>571.4629</ele>
        <time>2011-10-08T15:08:35Z</time>
      </trkpt>
      <trkpt lat="45.98696" lon="3.57633">
        <ele>573.16907</ele>
        <time>2011-10-08T15:08:27Z</time>
      </trkpt>
      <trkpt lat="45.98696" lon="3.57661">
        <ele>573.6249</ele>
        <time>2011-10-08T15:08:14Z</time>
      </trkpt>
      <trkpt lat="45.98682" lon="3.57678">
        <ele>572.4138</ele>
        <time>2011-10-08T15:08:06Z</time>
      </trkpt>
      <trkpt lat="45.98663" lon="3.57684">
        <ele>571.8668</ele>
        <time>2011-10-08T15:08:00Z</time>
      </trkpt>
      <trkpt lat="45.98645" lon="3.57674">
        <ele>571.5791</ele>
        <time>2011-10-08T15:07:56Z</time>
      </trkpt>
      <trkpt lat="45.98627" lon="3.57665">
        <ele>571.00305</ele>
        <time>2011-10-08T15:07:52Z</time>
      </trkpt>
      <trkpt lat="45.98608" lon="3.57667">
        <ele>571.00964</ele>
        <time>2011-10-08T15:07:48Z</time>
      </trkpt>
      <trkpt lat="45.98586" lon="3.57671">
        <ele>571.0305</ele>
        <time>2011-10-08T15:07:44Z</time>
      </trkpt>
      <trkpt lat="45.98568" lon="3.57669">
        <ele>571.0724</ele>
        <time>2011-10-08T15:07:41Z</time>
      </trkpt>
      <trkpt lat="45.98551" lon="3.57661">
        <ele>571.1715</ele>
        <time>2011-10-08T15:07:38Z</time>
      </trkpt>
      <trkpt lat="45.98531" lon="3.57648">
        <ele>571.54205</ele>
        <time>2011-10-08T15:07:34Z</time>
      </trkpt>
      <trkpt lat="45.98511" lon="3.57637">
        <ele>571.9355</ele>
        <time>2011-10-08T15:07:30Z</time>
      </trkpt>
      <trkpt lat="45.98492" lon="3.57629">
        <ele>571.7961</ele>
        <time>2011-10-08T15:07:26Z</time>
      </trkpt>
      <trkpt lat="45.98472" lon="3.57622">
        <ele>571.35547</ele>
        <time>2011-10-08T15:07:22Z</time>
      </trkpt>
      <trkpt lat="45.98452" lon="3.57616">
        <ele>570.74066</ele>
        <time>2011-10-08T15:07:18Z</time>
      </trkpt>
      <trkpt lat="45.98431" lon="3.57614">
        <ele>569.90717</ele>
        <time>2011-10-08T15:07:13Z</time>
      </trkpt>
      <trkpt lat="45.98411" lon="3.57611">
        <ele>568.32385</ele>
        <time>2011-10-08T15:07:09Z</time>
      </trkpt>
      <trkpt lat="45.98392" lon="3.57609">
        <ele>566.4062</ele>
        <time>2011-10-08T15:07:05Z</time>
      </trkpt>
      <trkpt lat="45.98371" lon="3.57607">
        <ele>564.7527</ele>
        <time>2011-10-08T15:06:59Z</time>
      </trkpt>
      <trkpt lat="45.98352" lon="3.57611">
        <ele>563.8999</ele>
        <time>2011-10-08T15:06:51Z</time>
      </trkpt>
      <trkpt lat="45.98332" lon="3.57611">
        <ele>563</ele>
        <time>2011-10-08T15:06:43Z</time>
      </trkpt>
      <trkpt lat="45.98313" lon="3.57614">
        <ele>563</ele>
        <time>2011-10-08T15:06:35Z</time>
      </trkpt>
      <trkpt lat="45.98294" lon="3.57618">
        <ele>563</ele>
        <time>2011-10-08T15:06:25Z</time>
      </trkpt>
      <trkpt lat="45.98275" lon="3.57622">
        <ele>566.0317</ele>
        <time>2011-10-08T15:01:03Z</time>
      </trkpt>
      <trkpt lat="45.98293" lon="3.57618">
        <ele>568.0122</ele>
        <time>2011-10-08T14:58:04Z</time>
      </trkpt>
      <trkpt lat="45.98274" lon="3.57622">
        <ele>568.1222</ele>
        <time>2011-10-08T14:57:56Z</time>
      </trkpt>
      <trkpt lat="45.98257" lon="3.57631">
        <ele>568.5149</ele>
        <time>2011-10-08T14:57:51Z</time>
      </trkpt>
      <trkpt lat="45.98242" lon="3.57648">
        <ele>569.6273</ele>
        <time>2011-10-08T14:57:47Z</time>
      </trkpt>
      <trkpt lat="45.98224" lon="3.57665">
        <ele>570.48694</ele>
        <time>2011-10-08T14:57:44Z</time>
      </trkpt>
      <trkpt lat="45.98203" lon="3.57682">
        <ele>571.1543</ele>
        <time>2011-10-08T14:57:41Z</time>
      </trkpt>
      <trkpt lat="45.98185" lon="3.57697">
        <ele>571.95825</ele>
        <time>2011-10-08T14:57:38Z</time>
      </trkpt>
      <trkpt lat="45.98167" lon="3.57708">
        <ele>573.2714</ele>
        <time>2011-10-08T14:57:35Z</time>
      </trkpt>
      <trkpt lat="45.98147" lon="3.57723">
        <ele>576.47516</ele>
        <time>2011-10-08T14:57:31Z</time>
      </trkpt>
      <trkpt lat="45.98127" lon="3.57736">
        <ele>580.12177</ele>
        <time>2011-10-08T14:57:26Z</time>
      </trkpt>
      <trkpt lat="45.98107" lon="3.57744">
        <ele>587.93286</ele>
        <time>2011-10-08T14:57:21Z</time>
      </trkpt>
      <trkpt lat="45.98085" lon="3.57747">
        <ele>592.4167</ele>
        <time>2011-10-08T14:57:16Z</time>
      </trkpt>
      <trkpt lat="45.98067" lon="3.57753">
        <ele>593.43896</ele>
        <time>2011-10-08T14:57:11Z</time>
      </trkpt>
      <trkpt lat="45.98074" lon="3.57777">
        <ele>595.1329</ele>
        <time>2011-10-08T14:57:05Z</time>
      </trkpt>
      <trkpt lat="45.98096" lon="3.5779">
        <ele>596.35205</ele>
        <time>2011-10-08T14:57:02Z</time>
      </trkpt>
      <trkpt lat="45.98115" lon="3.57805">
        <ele>597.42706</ele>
        <time>2011-10-08T14:56:59Z</time>
      </trkpt>
      <trkpt lat="45.98135" lon="3.57822">
        <ele>598.34973</ele>
        <time>2011-10-08T14:56:55Z</time>
      </trkpt>
      <trkpt lat="45.98151" lon="3.57839">
        <ele>599.1053</ele>
        <time>2011-10-08T14:56:51Z</time>
      </trkpt>
      <trkpt lat="45.98169" lon="3.57858">
        <ele>599.3327</ele>
        <time>2011-10-08T14:56:47Z</time>
      </trkpt>
      <trkpt lat="45.98185" lon="3.57877">
        <ele>599.78864</ele>
        <time>2011-10-08T14:56:44Z</time>
      </trkpt>
      <trkpt lat="45.98203" lon="3.57899">
        <ele>600.8694</ele>
        <time>2011-10-08T14:56:41Z</time>
      </trkpt>
      <trkpt lat="45.98222" lon="3.5792">
        <ele>602.0607</ele>
        <time>2011-10-08T14:56:38Z</time>
      </trkpt>
      <trkpt lat="45.98244" lon="3.5794">
        <ele>604.107</ele>
        <time>2011-10-08T14:56:35Z</time>
      </trkpt>
      <trkpt lat="45.98264" lon="3.57959">
        <ele>607.5869</ele>
        <time>2011-10-08T14:56:32Z</time>
      </trkpt>
      <trkpt lat="45.9828" lon="3.57978">
        <ele>612.4283</ele>
        <time>2011-10-08T14:56:29Z</time>
      </trkpt>
      <trkpt lat="45.98291" lon="3.58">
        <ele>617.2656</ele>
        <time>2011-10-08T14:56:24Z</time>
      </trkpt>
      <trkpt lat="45.98284" lon="3.58023">
        <ele>621.2494</ele>
        <time>2011-10-08T14:55:13Z</time>
      </trkpt>
      <trkpt lat="45.98271" lon="3.58047">
        <ele>623.171</ele>
        <time>2011-10-08T14:55:09Z</time>
      </trkpt>
      <trkpt lat="45.98261" lon="3.58075">
        <ele>624.4424</ele>
        <time>2011-10-08T14:55:06Z</time>
      </trkpt>
      <trkpt lat="45.98261" lon="3.58103">
        <ele>625.2309</ele>
        <time>2011-10-08T14:55:04Z</time>
      </trkpt>
      <trkpt lat="45.98271" lon="3.58139">
        <ele>626.5843</ele>
        <time>2011-10-08T14:55:01Z</time>
      </trkpt>
      <trkpt lat="45.98278" lon="3.58174">
        <ele>627.9776</ele>
        <time>2011-10-08T14:54:58Z</time>
      </trkpt>
      <trkpt lat="45.98283" lon="3.58199">
        <ele>628.738</ele>
        <time>2011-10-08T14:54:56Z</time>
      </trkpt>
      <trkpt lat="45.98288" lon="3.58229">
        <ele>629.31195</ele>
        <time>2011-10-08T14:54:54Z</time>
      </trkpt>
      <trkpt lat="45.98294" lon="3.58257">
        <ele>629.55457</ele>
        <time>2011-10-08T14:54:52Z</time>
      </trkpt>
      <trkpt lat="45.98303" lon="3.58289">
        <ele>629.98126</ele>
        <time>2011-10-08T14:54:49Z</time>
      </trkpt>
      <trkpt lat="45.98312" lon="3.58315">
        <ele>629.95557</ele>
        <time>2011-10-08T14:54:46Z</time>
      </trkpt>
      <trkpt lat="45.98319" lon="3.58341">
        <ele>629.89465</ele>
        <time>2011-10-08T14:54:43Z</time>
      </trkpt>
      <trkpt lat="45.98325" lon="3.58373">
        <ele>629.75024</ele>
        <time>2011-10-08T14:54:40Z</time>
      </trkpt>
      <trkpt lat="45.98325" lon="3.58401">
        <ele>629.408</ele>
        <time>2011-10-08T14:54:37Z</time>
      </trkpt>
      <trkpt lat="45.98318" lon="3.58431">
        <ele>629.3745</ele>
        <time>2011-10-08T14:54:34Z</time>
      </trkpt>
      <trkpt lat="45.98307" lon="3.58461">
        <ele>629.11</ele>
        <time>2011-10-08T14:54:31Z</time>
      </trkpt>
      <trkpt lat="45.98305" lon="3.58491">
        <ele>629.2607</ele>
        <time>2011-10-08T14:54:28Z</time>
      </trkpt>
      <trkpt lat="45.98307" lon="3.58528">
        <ele>629.82385</ele>
        <time>2011-10-08T14:54:24Z</time>
      </trkpt>
      <trkpt lat="45.98301" lon="3.58556">
        <ele>631.27057</ele>
        <time>2011-10-08T14:54:20Z</time>
      </trkpt>
      <trkpt lat="45.98279" lon="3.5856">
        <ele>633.01166</ele>
        <time>2011-10-08T14:54:17Z</time>
      </trkpt>
      <trkpt lat="45.98261" lon="3.58562">
        <ele>634.5763</ele>
        <time>2011-10-08T14:54:15Z</time>
      </trkpt>
      <trkpt lat="45.98242" lon="3.58566">
        <ele>637.0245</ele>
        <time>2011-10-08T14:54:13Z</time>
      </trkpt>
      <trkpt lat="45.98224" lon="3.58568">
        <ele>639.8213</ele>
        <time>2011-10-08T14:54:11Z</time>
      </trkpt>
      <trkpt lat="45.98205" lon="3.58573">
        <ele>643.2379</ele>
        <time>2011-10-08T14:54:09Z</time>
      </trkpt>
      <trkpt lat="45.98187" lon="3.58583">
        <ele>647.4229</ele>
        <time>2011-10-08T14:54:07Z</time>
      </trkpt>
      <trkpt lat="45.98171" lon="3.58596">
        <ele>651.7519</ele>
        <time>2011-10-08T14:54:05Z</time>
      </trkpt>
      <trkpt lat="45.98153" lon="3.5862">
        <ele>657.6711</ele>
        <time>2011-10-08T14:54:02Z</time>
      </trkpt>
      <trkpt lat="45.98135" lon="3.58646">
        <ele>660.4796</ele>
        <time>2011-10-08T14:53:59Z</time>
      </trkpt>
      <trkpt lat="45.98117" lon="3.58665">
        <ele>662.76654</ele>
        <time>2011-10-08T14:53:56Z</time>
      </trkpt>
      <trkpt lat="45.98102" lon="3.58686">
        <ele>664.4096</ele>
        <time>2011-10-08T14:53:53Z</time>
      </trkpt>
      <trkpt lat="45.98097" lon="3.58714">
        <ele>665.5635</ele>
        <time>2011-10-08T14:53:50Z</time>
      </trkpt>
      <trkpt lat="45.9811" lon="3.58747">
        <ele>666.59485</ele>
        <time>2011-10-08T14:53:47Z</time>
      </trkpt>
      <trkpt lat="45.98121" lon="3.58768">
        <ele>667.05756</ele>
        <time>2011-10-08T14:53:45Z</time>
      </trkpt>
      <trkpt lat="45.98141" lon="3.58794">
        <ele>667.13635</ele>
        <time>2011-10-08T14:53:42Z</time>
      </trkpt>
      <trkpt lat="45.98161" lon="3.58817">
        <ele>667.32324</ele>
        <time>2011-10-08T14:53:39Z</time>
      </trkpt>
      <trkpt lat="45.98177" lon="3.58832">
        <ele>667.57465</ele>
        <time>2011-10-08T14:53:37Z</time>
      </trkpt>
      <trkpt lat="45.98192" lon="3.5885">
        <ele>668.0216</ele>
        <time>2011-10-08T14:53:35Z</time>
      </trkpt>
      <trkpt lat="45.98206" lon="3.58869">
        <ele>668.8162</ele>
        <time>2011-10-08T14:53:33Z</time>
      </trkpt>
      <trkpt lat="45.9822" lon="3.58888">
        <ele>669.45105</ele>
        <time>2011-10-08T14:53:31Z</time>
      </trkpt>
      <trkpt lat="45.9824" lon="3.58914">
        <ele>670.66174</ele>
        <time>2011-10-08T14:53:28Z</time>
      </trkpt>
      <trkpt lat="45.98255" lon="3.5894">
        <ele>672.16113</ele>
        <time>2011-10-08T14:53:25Z</time>
      </trkpt>
      <trkpt lat="45.98266" lon="3.58968">
        <ele>673.41895</ele>
        <time>2011-10-08T14:53:22Z</time>
      </trkpt>
      <trkpt lat="45.98277" lon="3.58995">
        <ele>674.5856</ele>
        <time>2011-10-08T14:53:19Z</time>
      </trkpt>
      <trkpt lat="45.98285" lon="3.59023">
        <ele>675.38806</ele>
        <time>2011-10-08T14:53:16Z</time>
      </trkpt>
      <trkpt lat="45.98278" lon="3.59051">
        <ele>677.60925</ele>
        <time>2011-10-08T14:53:12Z</time>
      </trkpt>
      <trkpt lat="45.98261" lon="3.59071">
        <ele>680.0737</ele>
        <time>2011-10-08T14:53:09Z</time>
      </trkpt>
      <trkpt lat="45.98243" lon="3.5909">
        <ele>682.0726</ele>
        <time>2011-10-08T14:53:05Z</time>
      </trkpt>
      <trkpt lat="45.98229" lon="3.59118">
        <ele>682.58154</ele>
        <time>2011-10-08T14:53:00Z</time>
      </trkpt>
      <trkpt lat="45.9823" lon="3.59146">
        <ele>681.67737</ele>
        <time>2011-10-08T14:52:56Z</time>
      </trkpt>
      <trkpt lat="45.98224" lon="3.59174">
        <ele>680.6427</ele>
        <time>2011-10-08T14:52:53Z</time>
      </trkpt>
      <trkpt lat="45.98225" lon="3.59206">
        <ele>678.488</ele>
        <time>2011-10-08T14:52:49Z</time>
      </trkpt>
      <trkpt lat="45.98227" lon="3.59231">
        <ele>676.74927</ele>
        <time>2011-10-08T14:52:46Z</time>
      </trkpt>
      <trkpt lat="45.98216" lon="3.59255">
        <ele>674.36804</ele>
        <time>2011-10-08T14:52:42Z</time>
      </trkpt>
      <trkpt lat="45.98199" lon="3.59268">
        <ele>673.47955</ele>
        <time>2011-10-08T14:52:35Z</time>
      </trkpt>
      <trkpt lat="45.9818" lon="3.5927">
        <ele>672.4463</ele>
        <time>2011-10-08T14:52:29Z</time>
      </trkpt>
      <trkpt lat="45.9816" lon="3.59272">
        <ele>670.68286</ele>
        <time>2011-10-08T14:52:21Z</time>
      </trkpt>
      <trkpt lat="45.98141" lon="3.59272">
        <ele>669.99445</ele>
        <time>2011-10-08T14:52:14Z</time>
      </trkpt>
      <trkpt lat="45.98126" lon="3.59253">
        <ele>669.8687</ele>
        <time>2011-10-08T14:52:03Z</time>
      </trkpt>
      <trkpt lat="45.98112" lon="3.59234">
        <ele>668.0151</ele>
        <time>2011-10-08T14:51:51Z</time>
      </trkpt>
      <trkpt lat="45.98118" lon="3.59259">
        <ele>663.67566</ele>
        <time>2011-10-08T14:51:33Z</time>
      </trkpt>
      <trkpt lat="45.98131" lon="3.59281">
        <ele>660.0454</ele>
        <time>2011-10-08T14:51:13Z</time>
      </trkpt>
      <trkpt lat="45.98119" lon="3.59257">
        <ele>660.4534</ele>
        <time>2011-10-08T14:51:05Z</time>
      </trkpt>
      <trkpt lat="45.98109" lon="3.59234">
        <ele>661.31537</ele>
        <time>2011-10-08T14:50:57Z</time>
      </trkpt>
      <trkpt lat="45.98094" lon="3.59212">
        <ele>661.99207</ele>
        <time>2011-10-08T14:50:50Z</time>
      </trkpt>
      <trkpt lat="45.98078" lon="3.59195">
        <ele>661.9206</ele>
        <time>2011-10-08T14:50:42Z</time>
      </trkpt>
      <trkpt lat="45.9806" lon="3.59182">
        <ele>661.40533</ele>
        <time>2011-10-08T14:50:35Z</time>
      </trkpt>
      <trkpt lat="45.98042" lon="3.59167">
        <ele>660.759</ele>
        <time>2011-10-08T14:50:28Z</time>
      </trkpt>
      <trkpt lat="45.98026" lon="3.59152">
        <ele>659.97925</ele>
        <time>2011-10-08T14:50:22Z</time>
      </trkpt>
      <trkpt lat="45.98011" lon="3.59133">
        <ele>659.88336</ele>
        <time>2011-10-08T14:50:16Z</time>
      </trkpt>
      <trkpt lat="45.97999" lon="3.59111">
        <ele>659.34467</ele>
        <time>2011-10-08T14:50:10Z</time>
      </trkpt>
      <trkpt lat="45.97988" lon="3.59088">
        <ele>658.07263</ele>
        <time>2011-10-08T14:50:02Z</time>
      </trkpt>
      <trkpt lat="45.97977" lon="3.59066">
        <ele>657.0063</ele>
        <time>2011-10-08T14:49:54Z</time>
      </trkpt>
      <trkpt lat="45.97964" lon="3.59047">
        <ele>657.0471</ele>
        <time>2011-10-08T14:49:47Z</time>
      </trkpt>
      <trkpt lat="45.9795" lon="3.59025">
        <ele>657.1985</ele>
        <time>2011-10-08T14:49:42Z</time>
      </trkpt>
      <trkpt lat="45.97935" lon="3.59004">
        <ele>657.8363</ele>
        <time>2011-10-08T14:49:37Z</time>
      </trkpt>
      <trkpt lat="45.97919" lon="3.58983">
        <ele>661.36554</ele>
        <time>2011-10-08T14:49:31Z</time>
      </trkpt>
      <trkpt lat="45.97903" lon="3.58968">
        <ele>661.75024</ele>
        <time>2011-10-08T14:49:26Z</time>
      </trkpt>
      <trkpt lat="45.97883" lon="3.5895">
        <ele>662.00134</ele>
        <time>2011-10-08T14:49:20Z</time>
      </trkpt>
      <trkpt lat="45.97865" lon="3.5894">
        <ele>662.0056</ele>
        <time>2011-10-08T14:49:15Z</time>
      </trkpt>
      <trkpt lat="45.97849" lon="3.58925">
        <ele>662.0421</ele>
        <time>2011-10-08T14:49:08Z</time>
      </trkpt>
      <trkpt lat="45.97834" lon="3.58907">
        <ele>662.3153</ele>
        <time>2011-10-08T14:49:01Z</time>
      </trkpt>
      <trkpt lat="45.97819" lon="3.58892">
        <ele>662.9939</ele>
        <time>2011-10-08T14:48:55Z</time>
      </trkpt>
      <trkpt lat="45.97802" lon="3.58873">
        <ele>662.95447</ele>
        <time>2011-10-08T14:48:48Z</time>
      </trkpt>
      <trkpt lat="45.97786" lon="3.58854">
        <ele>662.3933</ele>
        <time>2011-10-08T14:48:39Z</time>
      </trkpt>
      <trkpt lat="45.9777" lon="3.58835">
        <ele>660.0881</ele>
        <time>2011-10-08T14:48:29Z</time>
      </trkpt>
      <trkpt lat="45.97757" lon="3.58815">
        <ele>658.5603</ele>
        <time>2011-10-08T14:48:20Z</time>
      </trkpt>
      <trkpt lat="45.97741" lon="3.588">
        <ele>657.8665</ele>
        <time>2011-10-08T14:48:13Z</time>
      </trkpt>
      <trkpt lat="45.97725" lon="3.58785">
        <ele>657.0001</ele>
        <time>2011-10-08T14:48:06Z</time>
      </trkpt>
      <trkpt lat="45.97708" lon="3.58772">
        <ele>657.0018</ele>
        <time>2011-10-08T14:47:56Z</time>
      </trkpt>
      <trkpt lat="45.97691" lon="3.58759">
        <ele>657.0178</ele>
        <time>2011-10-08T14:47:48Z</time>
      </trkpt>
      <trkpt lat="45.97674" lon="3.58751">
        <ele>657.237</ele>
        <time>2011-10-08T14:47:39Z</time>
      </trkpt>
      <trkpt lat="45.97656" lon="3.58747">
        <ele>657.9922</ele>
        <time>2011-10-08T14:47:28Z</time>
      </trkpt>
      <trkpt lat="45.9764" lon="3.58762">
        <ele>657.8956</ele>
        <time>2011-10-08T14:47:19Z</time>
      </trkpt>
      <trkpt lat="45.97645" lon="3.58789">
        <ele>657.4136</ele>
        <time>2011-10-08T14:47:13Z</time>
      </trkpt>
      <trkpt lat="45.97654" lon="3.58815">
        <ele>656.86554</ele>
        <time>2011-10-08T14:47:07Z</time>
      </trkpt>
      <trkpt lat="45.97664" lon="3.58839">
        <ele>656.4333</ele>
        <time>2011-10-08T14:47:02Z</time>
      </trkpt>
      <trkpt lat="45.9767" lon="3.58867">
        <ele>655.97626</ele>
        <time>2011-10-08T14:46:56Z</time>
      </trkpt>
      <trkpt lat="45.97666" lon="3.58892">
        <ele>655.89996</ele>
        <time>2011-10-08T14:46:51Z</time>
      </trkpt>
      <trkpt lat="45.97657" lon="3.58916">
        <ele>655.2506</ele>
        <time>2011-10-08T14:46:44Z</time>
      </trkpt>
      <trkpt lat="45.97661" lon="3.58944">
        <ele>655.00433</ele>
        <time>2011-10-08T14:46:37Z</time>
      </trkpt>
      <trkpt lat="45.9766" lon="3.58972">
        <ele>655.0184</ele>
        <time>2011-10-08T14:46:32Z</time>
      </trkpt>
      <trkpt lat="45.97653" lon="3.59">
        <ele>655.10333</ele>
        <time>2011-10-08T14:46:26Z</time>
      </trkpt>
      <trkpt lat="45.97647" lon="3.59025">
        <ele>655.43536</ele>
        <time>2011-10-08T14:46:21Z</time>
      </trkpt>
      <trkpt lat="45.97642" lon="3.59051">
        <ele>656.8347</ele>
        <time>2011-10-08T14:46:16Z</time>
      </trkpt>
      <trkpt lat="45.97629" lon="3.59075">
        <ele>660.25</ele>
        <time>2011-10-08T14:46:11Z</time>
      </trkpt>
      <trkpt lat="45.97616" lon="3.59098">
        <ele>661.0042</ele>
        <time>2011-10-08T14:44:15Z</time>
      </trkpt>
      <trkpt lat="45.97602" lon="3.59118">
        <ele>661.0178</ele>
        <time>2011-10-08T14:44:10Z</time>
      </trkpt>
      <trkpt lat="45.97591" lon="3.59141">
        <ele>662</ele>
        <time>2011-10-08T14:39:21Z</time>
      </trkpt>
      <trkpt lat="45.97573" lon="3.5915">
        <ele>671.00055</ele>
        <time>2011-10-08T14:31:18Z</time>
      </trkpt>
      <trkpt lat="45.97556" lon="3.59167">
        <ele>671.0057</ele>
        <time>2011-10-08T14:31:10Z</time>
      </trkpt>
      <trkpt lat="45.9754" lon="3.59186">
        <ele>671.04236</ele>
        <time>2011-10-08T14:31:03Z</time>
      </trkpt>
      <trkpt lat="45.97529" lon="3.5921">
        <ele>671.2379</ele>
        <time>2011-10-08T14:30:57Z</time>
      </trkpt>
      <trkpt lat="45.97519" lon="3.59234">
        <ele>672.0033</ele>
        <time>2011-10-08T14:30:51Z</time>
      </trkpt>
      <trkpt lat="45.97517" lon="3.59262">
        <ele>672.02466</ele>
        <time>2011-10-08T14:30:44Z</time>
      </trkpt>
      <trkpt lat="45.97503" lon="3.59283">
        <ele>672.1846</ele>
        <time>2011-10-08T14:30:37Z</time>
      </trkpt>
      <trkpt lat="45.97489" lon="3.59302">
        <ele>673.0371</ele>
        <time>2011-10-08T14:30:31Z</time>
      </trkpt>
      <trkpt lat="45.97474" lon="3.59324">
        <ele>673.2086</ele>
        <time>2011-10-08T14:30:25Z</time>
      </trkpt>
      <trkpt lat="45.97456" lon="3.59341">
        <ele>673.10144</ele>
        <time>2011-10-08T14:30:20Z</time>
      </trkpt>
      <trkpt lat="45.97439" lon="3.59358">
        <ele>672.3617</ele>
        <time>2011-10-08T14:30:15Z</time>
      </trkpt>
      <trkpt lat="45.97421" lon="3.59367">
        <ele>674.03235</ele>
        <time>2011-10-08T14:30:09Z</time>
      </trkpt>
      <trkpt lat="45.97402" lon="3.59373">
        <ele>678.8607</ele>
        <time>2011-10-08T14:30:04Z</time>
      </trkpt>
      <trkpt lat="45.97381" lon="3.59382">
        <ele>680.9932</ele>
        <time>2011-10-08T14:29:59Z</time>
      </trkpt>
      <trkpt lat="45.9736" lon="3.59388">
        <ele>682.36676</ele>
        <time>2011-10-08T14:29:53Z</time>
      </trkpt>
      <trkpt lat="45.97342" lon="3.59392">
        <ele>683.5455</ele>
        <time>2011-10-08T14:29:48Z</time>
      </trkpt>
      <trkpt lat="45.97322" lon="3.59397">
        <ele>684.9653</ele>
        <time>2011-10-08T14:29:43Z</time>
      </trkpt>
      <trkpt lat="45.97302" lon="3.59407">
        <ele>686.69727</ele>
        <time>2011-10-08T14:29:38Z</time>
      </trkpt>
      <trkpt lat="45.97291" lon="3.59433">
        <ele>688.5474</ele>
        <time>2011-10-08T14:29:32Z</time>
      </trkpt>
      <trkpt lat="45.97282" lon="3.59457">
        <ele>689.9404</ele>
        <time>2011-10-08T14:29:25Z</time>
      </trkpt>
      <trkpt lat="45.97264" lon="3.59468">
        <ele>689.7491</ele>
        <time>2011-10-08T14:29:20Z</time>
      </trkpt>
      <trkpt lat="45.97243" lon="3.59468">
        <ele>689.20703</ele>
        <time>2011-10-08T14:29:16Z</time>
      </trkpt>
      <trkpt lat="45.97223" lon="3.59465">
        <ele>688.7584</ele>
        <time>2011-10-08T14:29:10Z</time>
      </trkpt>
      <trkpt lat="45.97202" lon="3.59463">
        <ele>687.95734</ele>
        <time>2011-10-08T14:29:02Z</time>
      </trkpt>
      <trkpt lat="45.97184" lon="3.59461">
        <ele>687.6803</ele>
        <time>2011-10-08T14:28:55Z</time>
      </trkpt>
      <trkpt lat="45.97164" lon="3.59457">
        <ele>686.9754</ele>
        <time>2011-10-08T14:28:48Z</time>
      </trkpt>
      <trkpt lat="45.97146" lon="3.59444">
        <ele>686.41815</ele>
        <time>2011-10-08T14:28:37Z</time>
      </trkpt>
      <trkpt lat="45.97137" lon="3.5942">
        <ele>682.8999</ele>
        <time>2011-10-08T14:28:04Z</time>
      </trkpt>
      <trkpt lat="45.97141" lon="3.59395">
        <ele>681.9999</ele>
        <time>2011-10-08T14:27:51Z</time>
      </trkpt>
      <trkpt lat="45.97152" lon="3.59373">
        <ele>681.9903</ele>
        <time>2011-10-08T14:27:36Z</time>
      </trkpt>
      <trkpt lat="45.97158" lon="3.59347">
        <ele>681.693</ele>
        <time>2011-10-08T14:27:24Z</time>
      </trkpt>
      <trkpt lat="45.97169" lon="3.59322">
        <ele>680.072</ele>
        <time>2011-10-08T14:27:15Z</time>
      </trkpt>
      <trkpt lat="45.97182" lon="3.593">
        <ele>679</ele>
        <time>2011-10-08T14:27:04Z</time>
      </trkpt>
      <trkpt lat="45.97189" lon="3.59277">
        <ele>679.00006</ele>
        <time>2011-10-08T14:26:56Z</time>
      </trkpt>
      <trkpt lat="45.97191" lon="3.59249">
        <ele>679.0017</ele>
        <time>2011-10-08T14:26:43Z</time>
      </trkpt>
      <trkpt lat="45.97188" lon="3.59223">
        <ele>679.129</ele>
        <time>2011-10-08T14:26:28Z</time>
      </trkpt>
      <trkpt lat="45.97175" lon="3.59204">
        <ele>679.9205</ele>
        <time>2011-10-08T14:26:18Z</time>
      </trkpt>
      <trkpt lat="45.97159" lon="3.59186">
        <ele>679.2055</ele>
        <time>2011-10-08T14:26:10Z</time>
      </trkpt>
      <trkpt lat="45.97154" lon="3.59161">
        <ele>680.6519</ele>
        <time>2011-10-08T14:25:59Z</time>
      </trkpt>
      <trkpt lat="45.97141" lon="3.59137">
        <ele>681.8934</ele>
        <time>2011-10-08T14:25:51Z</time>
      </trkpt>
      <trkpt lat="45.97126" lon="3.59122">
        <ele>683.0742</ele>
        <time>2011-10-08T14:25:44Z</time>
      </trkpt>
      <trkpt lat="45.97109" lon="3.59107">
        <ele>684.4882</ele>
        <time>2011-10-08T14:25:38Z</time>
      </trkpt>
      <trkpt lat="45.97091" lon="3.59092">
        <ele>686.05743</ele>
        <time>2011-10-08T14:25:33Z</time>
      </trkpt>
      <trkpt lat="45.97075" lon="3.59079">
        <ele>688.3419</ele>
        <time>2011-10-08T14:25:29Z</time>
      </trkpt>
      <trkpt lat="45.97059" lon="3.59064">
        <ele>690.92017</ele>
        <time>2011-10-08T14:25:25Z</time>
      </trkpt>
      <trkpt lat="45.97042" lon="3.59047">
        <ele>689.9822</ele>
        <time>2011-10-08T14:25:21Z</time>
      </trkpt>
      <trkpt lat="45.97029" lon="3.59025">
        <ele>687.0548</ele>
        <time>2011-10-08T14:25:17Z</time>
      </trkpt>
      <trkpt lat="45.97027" lon="3.59">
        <ele>684.3502</ele>
        <time>2011-10-08T14:25:12Z</time>
      </trkpt>
      <trkpt lat="45.97016" lon="3.58978">
        <ele>678.6253</ele>
        <time>2011-10-08T14:25:08Z</time>
      </trkpt>
      <trkpt lat="45.97002" lon="3.58957">
        <ele>671.18616</ele>
        <time>2011-10-08T14:25:04Z</time>
      </trkpt>
      <trkpt lat="45.96987" lon="3.58942">
        <ele>664.71173</ele>
        <time>2011-10-08T14:25:00Z</time>
      </trkpt>
      <trkpt lat="45.9697" lon="3.58925">
        <ele>661.27484</ele>
        <time>2011-10-08T14:24:55Z</time>
      </trkpt>
      <trkpt lat="45.96956" lon="3.58907">
        <ele>658.6686</ele>
        <time>2011-10-08T14:24:50Z</time>
      </trkpt>
      <trkpt lat="45.96944" lon="3.58888">
        <ele>655.45746</ele>
        <time>2011-10-08T14:24:44Z</time>
      </trkpt>
      <trkpt lat="45.9693" lon="3.58867">
        <ele>653.2505</ele>
        <time>2011-10-08T14:24:38Z</time>
      </trkpt>
      <trkpt lat="45.96915" lon="3.58852">
        <ele>653.00385</ele>
        <time>2011-10-08T14:24:31Z</time>
      </trkpt>
      <trkpt lat="45.96901" lon="3.58832">
        <ele>653.122</ele>
        <time>2011-10-08T14:24:19Z</time>
      </trkpt>
      <trkpt lat="45.96891" lon="3.58809">
        <ele>654.692</ele>
        <time>2011-10-08T14:24:07Z</time>
      </trkpt>
      <trkpt lat="45.9688" lon="3.58785">
        <ele>656.522</ele>
        <time>2011-10-08T14:23:57Z</time>
      </trkpt>
      <trkpt lat="45.9687" lon="3.58762">
        <ele>657.74976</ele>
        <time>2011-10-08T14:23:50Z</time>
      </trkpt>
      <trkpt lat="45.96865" lon="3.58736">
        <ele>657.99365</ele>
        <time>2011-10-08T14:23:39Z</time>
      </trkpt>
      <trkpt lat="45.96879" lon="3.58719">
        <ele>657.93634</ele>
        <time>2011-10-08T14:23:31Z</time>
      </trkpt>
      <trkpt lat="45.96899" lon="3.5871">
        <ele>657.36395</ele>
        <time>2011-10-08T14:23:23Z</time>
      </trkpt>
      <trkpt lat="45.96913" lon="3.58689">
        <ele>658.20044</ele>
        <time>2011-10-08T14:23:18Z</time>
      </trkpt>
      <trkpt lat="45.96925" lon="3.58669">
        <ele>658.63354</ele>
        <time>2011-10-08T14:23:14Z</time>
      </trkpt>
      <trkpt lat="45.96937" lon="3.58644">
        <ele>659.2245</ele>
        <time>2011-10-08T14:23:10Z</time>
      </trkpt>
      <trkpt lat="45.96946" lon="3.58618">
        <ele>659.5321</ele>
        <time>2011-10-08T14:23:07Z</time>
      </trkpt>
      <trkpt lat="45.96956" lon="3.58588">
        <ele>660.2373</ele>
        <time>2011-10-08T14:23:03Z</time>
      </trkpt>
      <trkpt lat="45.96965" lon="3.5856">
        <ele>660.75</ele>
        <time>2011-10-08T14:22:59Z</time>
      </trkpt>
      <trkpt lat="45.96966" lon="3.58528">
        <ele>660.9982</ele>
        <time>2011-10-08T14:22:24Z</time>
      </trkpt>
      <trkpt lat="45.96959" lon="3.58504">
        <ele>660.0595</ele>
        <time>2011-10-08T14:19:08Z</time>
      </trkpt>
      <trkpt lat="45.96965" lon="3.58478">
        <ele>660.5944</ele>
        <time>2011-10-08T14:19:00Z</time>
      </trkpt>
      <trkpt lat="45.9697" lon="3.5845">
        <ele>661.8788</ele>
        <time>2011-10-08T14:18:56Z</time>
      </trkpt>
      <trkpt lat="45.96977" lon="3.58425">
        <ele>662.9995</ele>
        <time>2011-10-08T14:18:52Z</time>
      </trkpt>
      <trkpt lat="45.96974" lon="3.58395">
        <ele>662.99744</ele>
        <time>2011-10-08T14:18:46Z</time>
      </trkpt>
      <trkpt lat="45.96972" lon="3.58369">
        <ele>662.9919</ele>
        <time>2011-10-08T14:18:42Z</time>
      </trkpt>
      <trkpt lat="45.96976" lon="3.58343">
        <ele>662.95435</ele>
        <time>2011-10-08T14:18:36Z</time>
      </trkpt>
      <trkpt lat="45.96978" lon="3.58315">
        <ele>662.74335</ele>
        <time>2011-10-08T14:18:30Z</time>
      </trkpt>
      <trkpt lat="45.96975" lon="3.58287">
        <ele>661.9184</ele>
        <time>2011-10-08T14:18:25Z</time>
      </trkpt>
      <trkpt lat="45.96966" lon="3.58262">
        <ele>660.6927</ele>
        <time>2011-10-08T14:18:21Z</time>
      </trkpt>
      <trkpt lat="45.96955" lon="3.58238">
        <ele>659.70496</ele>
        <time>2011-10-08T14:18:16Z</time>
      </trkpt>
      <trkpt lat="45.96941" lon="3.58214">
        <ele>658.7567</ele>
        <time>2011-10-08T14:18:11Z</time>
      </trkpt>
      <trkpt lat="45.96928" lon="3.58193">
        <ele>657.97485</ele>
        <time>2011-10-08T14:18:06Z</time>
      </trkpt>
      <trkpt lat="45.96914" lon="3.58171">
        <ele>656.4539</ele>
        <time>2011-10-08T14:18:00Z</time>
      </trkpt>
      <trkpt lat="45.969" lon="3.58154">
        <ele>654.2792</ele>
        <time>2011-10-08T14:17:53Z</time>
      </trkpt>
      <trkpt lat="45.96886" lon="3.58135">
        <ele>651.3888</ele>
        <time>2011-10-08T14:17:44Z</time>
      </trkpt>
      <trkpt lat="45.96871" lon="3.5812">
        <ele>649.4422</ele>
        <time>2011-10-08T14:17:36Z</time>
      </trkpt>
      <trkpt lat="45.96857" lon="3.58101">
        <ele>647.9819</ele>
        <time>2011-10-08T14:17:29Z</time>
      </trkpt>
      <trkpt lat="45.96846" lon="3.58071">
        <ele>646.49335</ele>
        <time>2011-10-08T14:17:23Z</time>
      </trkpt>
      <trkpt lat="45.96831" lon="3.58051">
        <ele>645.7991</ele>
        <time>2011-10-08T14:17:20Z</time>
      </trkpt>
      <trkpt lat="45.96814" lon="3.58036">
        <ele>644.5748</ele>
        <time>2011-10-08T14:17:16Z</time>
      </trkpt>
      <trkpt lat="45.96796" lon="3.58028">
        <ele>642.9138</ele>
        <time>2011-10-08T14:17:08Z</time>
      </trkpt>
      <trkpt lat="45.96782" lon="3.58008">
        <ele>640.6835</ele>
        <time>2011-10-08T14:16:59Z</time>
      </trkpt>
      <trkpt lat="45.96771" lon="3.57987">
        <ele>639.99927</ele>
        <time>2011-10-08T14:16:51Z</time>
      </trkpt>
      <trkpt lat="45.9676" lon="3.57965">
        <ele>639.99585</ele>
        <time>2011-10-08T14:16:45Z</time>
      </trkpt>
      <trkpt lat="45.96748" lon="3.57944">
        <ele>639.98254</ele>
        <time>2011-10-08T14:16:40Z</time>
      </trkpt>
      <trkpt lat="45.96738" lon="3.57923">
        <ele>639.92633</ele>
        <time>2011-10-08T14:16:35Z</time>
      </trkpt>
      <trkpt lat="45.9673" lon="3.57899">
        <ele>639.6896</ele>
        <time>2011-10-08T14:16:30Z</time>
      </trkpt>
      <trkpt lat="45.96722" lon="3.57875">
        <ele>638.69196</ele>
        <time>2011-10-08T14:16:25Z</time>
      </trkpt>
      <trkpt lat="45.96713" lon="3.57847">
        <ele>635.599</ele>
        <time>2011-10-08T14:16:20Z</time>
      </trkpt>
      <trkpt lat="45.96708" lon="3.5782">
        <ele>634.627</ele>
        <time>2011-10-08T14:16:15Z</time>
      </trkpt>
      <trkpt lat="45.96703" lon="3.57792">
        <ele>633.7617</ele>
        <time>2011-10-08T14:16:10Z</time>
      </trkpt>
      <trkpt lat="45.96697" lon="3.57766">
        <ele>632.9958</ele>
        <time>2011-10-08T14:16:05Z</time>
      </trkpt>
      <trkpt lat="45.96689" lon="3.57742">
        <ele>632.9822</ele>
        <time>2011-10-08T14:16:00Z</time>
      </trkpt>
      <trkpt lat="45.96679" lon="3.57714">
        <ele>632.8999</ele>
        <time>2011-10-08T14:15:54Z</time>
      </trkpt>
      <trkpt lat="45.96669" lon="3.57691">
        <ele>632.4375</ele>
        <time>2011-10-08T14:15:48Z</time>
      </trkpt>
      <trkpt lat="45.96653" lon="3.57676">
        <ele>632.00006</ele>
        <time>2011-10-08T14:15:43Z</time>
      </trkpt>
      <trkpt lat="45.96636" lon="3.57661">
        <ele>632.0002</ele>
        <time>2011-10-08T14:15:37Z</time>
      </trkpt>
      <trkpt lat="45.96623" lon="3.57641">
        <ele>632.00073</ele>
        <time>2011-10-08T14:15:32Z</time>
      </trkpt>
      <trkpt lat="45.96609" lon="3.5762">
        <ele>632.0032</ele>
        <time>2011-10-08T14:15:27Z</time>
      </trkpt>
      <trkpt lat="45.96597" lon="3.57599">
        <ele>632.0178</ele>
        <time>2011-10-08T14:15:21Z</time>
      </trkpt>
      <trkpt lat="45.96585" lon="3.57575">
        <ele>632.0751</ele>
        <time>2011-10-08T14:15:16Z</time>
      </trkpt>
      <trkpt lat="45.96572" lon="3.57553">
        <ele>632.4219</ele>
        <time>2011-10-08T14:15:10Z</time>
      </trkpt>
      <trkpt lat="45.96562" lon="3.57532">
        <ele>633</ele>
        <time>2011-10-08T14:15:00Z</time>
      </trkpt>
      <trkpt lat="45.9655" lon="3.57511">
        <ele>632.9997</ele>
        <time>2011-10-08T14:14:37Z</time>
      </trkpt>
      <trkpt lat="45.96535" lon="3.57496">
        <ele>632.876</ele>
        <time>2011-10-08T14:14:16Z</time>
      </trkpt>
      <trkpt lat="45.96519" lon="3.57483">
        <ele>631.575</ele>
        <time>2011-10-08T14:14:06Z</time>
      </trkpt>
      <trkpt lat="45.96502" lon="3.57474">
        <ele>630.1866</ele>
        <time>2011-10-08T14:13:59Z</time>
      </trkpt>
      <trkpt lat="45.96483" lon="3.57466">
        <ele>627.7053</ele>
        <time>2011-10-08T14:13:49Z</time>
      </trkpt>
      <trkpt lat="45.96466" lon="3.57455">
        <ele>617.12537</ele>
        <time>2011-10-08T14:12:10Z</time>
      </trkpt>
      <trkpt lat="45.96484" lon="3.57442">
        <ele>617.8079</ele>
        <time>2011-10-08T14:11:59Z</time>
      </trkpt>
      <trkpt lat="45.96507" lon="3.57425">
        <ele>616.4057</ele>
        <time>2011-10-08T14:11:46Z</time>
      </trkpt>
      <trkpt lat="45.96518" lon="3.57401">
        <ele>615.5767</ele>
        <time>2011-10-08T14:11:37Z</time>
      </trkpt>
      <trkpt lat="45.9652" lon="3.57375">
        <ele>614.994</ele>
        <time>2011-10-08T14:11:32Z</time>
      </trkpt>
      <trkpt lat="45.96524" lon="3.5735">
        <ele>614.96655</ele>
        <time>2011-10-08T14:11:26Z</time>
      </trkpt>
      <trkpt lat="45.96533" lon="3.57324">
        <ele>614.8119</ele>
        <time>2011-10-08T14:11:20Z</time>
      </trkpt>
      <trkpt lat="45.96546" lon="3.57302">
        <ele>614.2074</ele>
        <time>2011-10-08T14:11:15Z</time>
      </trkpt>
      <trkpt lat="45.96561" lon="3.57279">
        <ele>612.4378</ele>
        <time>2011-10-08T14:11:10Z</time>
      </trkpt>
      <trkpt lat="45.96572" lon="3.57255">
        <ele>612.00134</ele>
        <time>2011-10-08T14:11:05Z</time>
      </trkpt>
      <trkpt lat="45.96584" lon="3.57229">
        <ele>612.0075</ele>
        <time>2011-10-08T14:10:59Z</time>
      </trkpt>
      <trkpt lat="45.96597" lon="3.57206">
        <ele>612.04224</ele>
        <time>2011-10-08T14:10:53Z</time>
      </trkpt>
      <trkpt lat="45.96611" lon="3.57184">
        <ele>612.2373</ele>
        <time>2011-10-08T14:10:47Z</time>
      </trkpt>
      <trkpt lat="45.96626" lon="3.57161">
        <ele>613.00006</ele>
        <time>2011-10-08T14:10:41Z</time>
      </trkpt>
      <trkpt lat="45.96641" lon="3.57139">
        <ele>613.00037</ele>
        <time>2011-10-08T14:10:35Z</time>
      </trkpt>
      <trkpt lat="45.96654" lon="3.57118">
        <ele>613.00146</ele>
        <time>2011-10-08T14:10:30Z</time>
      </trkpt>
      <trkpt lat="45.96668" lon="3.57094">
        <ele>613.0063</ele>
        <time>2011-10-08T14:10:25Z</time>
      </trkpt>
      <trkpt lat="45.96682" lon="3.57071">
        <ele>613.04694</ele>
        <time>2011-10-08T14:10:18Z</time>
      </trkpt>
      <trkpt lat="45.96693" lon="3.57045">
        <ele>613.2638</ele>
        <time>2011-10-08T14:10:12Z</time>
      </trkpt>
      <trkpt lat="45.967" lon="3.57019">
        <ele>613.8337</ele>
        <time>2011-10-08T14:10:08Z</time>
      </trkpt>
      <trkpt lat="45.96713" lon="3.56993">
        <ele>613.4744</ele>
        <time>2011-10-08T14:10:04Z</time>
      </trkpt>
      <trkpt lat="45.96728" lon="3.56972">
        <ele>613.70935</ele>
        <time>2011-10-08T14:10:00Z</time>
      </trkpt>
      <trkpt lat="45.96744" lon="3.56948">
        <ele>614.9085</ele>
        <time>2011-10-08T14:09:56Z</time>
      </trkpt>
      <trkpt lat="45.96761" lon="3.56925">
        <ele>614.71094</ele>
        <time>2011-10-08T14:09:52Z</time>
      </trkpt>
      <trkpt lat="45.96778" lon="3.56905">
        <ele>615.0925</ele>
        <time>2011-10-08T14:09:49Z</time>
      </trkpt>
      <trkpt lat="45.96797" lon="3.56884">
        <ele>615.21936</ele>
        <time>2011-10-08T14:09:46Z</time>
      </trkpt>
      <trkpt lat="45.9681" lon="3.5686">
        <ele>614.1496</ele>
        <time>2011-10-08T14:09:43Z</time>
      </trkpt>
      <trkpt lat="45.9681" lon="3.56833">
        <ele>612.7249</ele>
        <time>2011-10-08T14:09:40Z</time>
      </trkpt>
      <trkpt lat="45.96805" lon="3.56805">
        <ele>611.7554</ele>
        <time>2011-10-08T14:09:37Z</time>
      </trkpt>
      <trkpt lat="45.96801" lon="3.56772">
        <ele>610.4367</ele>
        <time>2011-10-08T14:09:33Z</time>
      </trkpt>
      <trkpt lat="45.96803" lon="3.56745">
        <ele>609.99677</ele>
        <time>2011-10-08T14:09:28Z</time>
      </trkpt>
      <trkpt lat="45.96817" lon="3.56727">
        <ele>609.98627</ele>
        <time>2011-10-08T14:09:23Z</time>
      </trkpt>
      <trkpt lat="45.96833" lon="3.56714">
        <ele>609.92285</ele>
        <time>2011-10-08T14:09:17Z</time>
      </trkpt>
      <trkpt lat="45.96852" lon="3.56702">
        <ele>609.4222</ele>
        <time>2011-10-08T14:09:10Z</time>
      </trkpt>
      <trkpt lat="45.96872" lon="3.56689">
        <ele>607.53125</ele>
        <time>2011-10-08T14:09:04Z</time>
      </trkpt>
      <trkpt lat="45.9689" lon="3.56674">
        <ele>606.80237</ele>
        <time>2011-10-08T14:08:59Z</time>
      </trkpt>
      <trkpt lat="45.96907" lon="3.56659">
        <ele>607.2041</ele>
        <time>2011-10-08T14:08:54Z</time>
      </trkpt>
      <trkpt lat="45.96915" lon="3.56631">
        <ele>607.86017</ele>
        <time>2011-10-08T14:08:49Z</time>
      </trkpt>
      <trkpt lat="45.96908" lon="3.56601">
        <ele>608.3482</ele>
        <time>2011-10-08T14:08:45Z</time>
      </trkpt>
      <trkpt lat="45.96895" lon="3.56581">
        <ele>608.0476</ele>
        <time>2011-10-08T14:08:42Z</time>
      </trkpt>
      <trkpt lat="45.96878" lon="3.56566">
        <ele>606.74243</ele>
        <time>2011-10-08T14:08:39Z</time>
      </trkpt>
      <trkpt lat="45.96861" lon="3.56558">
        <ele>605.7291</ele>
        <time>2011-10-08T14:08:35Z</time>
      </trkpt>
      <trkpt lat="45.96843" lon="3.56549">
        <ele>606.5143</ele>
        <time>2011-10-08T14:08:31Z</time>
      </trkpt>
      <trkpt lat="45.96826" lon="3.56536">
        <ele>609.0081</ele>
        <time>2011-10-08T14:08:27Z</time>
      </trkpt>
      <trkpt lat="45.96807" lon="3.56519">
        <ele>613.0256</ele>
        <time>2011-10-08T14:08:23Z</time>
      </trkpt>
      <trkpt lat="45.96791" lon="3.56496">
        <ele>618.1078</ele>
        <time>2011-10-08T14:08:18Z</time>
      </trkpt>
      <trkpt lat="45.96786" lon="3.56468">
        <ele>621.7504</ele>
        <time>2011-10-08T14:08:13Z</time>
      </trkpt>
      <trkpt lat="45.96783" lon="3.5644">
        <ele>622.00244</ele>
        <time>2011-10-08T14:08:07Z</time>
      </trkpt>
      <trkpt lat="45.96783" lon="3.56412">
        <ele>622.02454</ele>
        <time>2011-10-08T14:07:59Z</time>
      </trkpt>
      <trkpt lat="45.9679" lon="3.56384">
        <ele>622.1378</ele>
        <time>2011-10-08T14:07:53Z</time>
      </trkpt>
      <trkpt lat="45.96792" lon="3.56358">
        <ele>622.5806</ele>
        <time>2011-10-08T14:07:48Z</time>
      </trkpt>
      <trkpt lat="45.96776" lon="3.56343">
        <ele>623.5018</ele>
        <time>2011-10-08T14:07:44Z</time>
      </trkpt>
      <trkpt lat="45.96755" lon="3.56328">
        <ele>624.2525</ele>
        <time>2011-10-08T14:07:40Z</time>
      </trkpt>
      <trkpt lat="45.96734" lon="3.56318">
        <ele>624.59845</ele>
        <time>2011-10-08T14:07:37Z</time>
      </trkpt>
      <trkpt lat="45.96713" lon="3.56315">
        <ele>625.0852</ele>
        <time>2011-10-08T14:07:34Z</time>
      </trkpt>
      <trkpt lat="45.96691" lon="3.5632">
        <ele>625.202</ele>
        <time>2011-10-08T14:07:31Z</time>
      </trkpt>
      <trkpt lat="45.96672" lon="3.56328">
        <ele>625.4789</ele>
        <time>2011-10-08T14:07:28Z</time>
      </trkpt>
      <trkpt lat="45.96653" lon="3.56335">
        <ele>624.7647</ele>
        <time>2011-10-08T14:07:25Z</time>
      </trkpt>
      <trkpt lat="45.96632" lon="3.56341">
        <ele>624.4422</ele>
        <time>2011-10-08T14:07:22Z</time>
      </trkpt>
      <trkpt lat="45.96613" lon="3.56345">
        <ele>623.67786</ele>
        <time>2011-10-08T14:07:19Z</time>
      </trkpt>
      <trkpt lat="45.96595" lon="3.5635">
        <ele>623.23645</ele>
        <time>2011-10-08T14:07:16Z</time>
      </trkpt>
      <trkpt lat="45.96572" lon="3.56354">
        <ele>622.95715</ele>
        <time>2011-10-08T14:07:12Z</time>
      </trkpt>
      <trkpt lat="45.9655" lon="3.5635">
        <ele>622.8645</ele>
        <time>2011-10-08T14:07:08Z</time>
      </trkpt>
      <trkpt lat="45.96532" lon="3.5633">
        <ele>622.57184</ele>
        <time>2011-10-08T14:07:04Z</time>
      </trkpt>
      <trkpt lat="45.96525" lon="3.56302">
        <ele>623.0294</ele>
        <time>2011-10-08T14:07:00Z</time>
      </trkpt>
      <trkpt lat="45.96528" lon="3.56272">
        <ele>623.0931</ele>
        <time>2011-10-08T14:06:56Z</time>
      </trkpt>
      <trkpt lat="45.96532" lon="3.56242">
        <ele>623.2941</ele>
        <time>2011-10-08T14:06:52Z</time>
      </trkpt>
      <trkpt lat="45.96538" lon="3.56208">
        <ele>623.9295</ele>
        <time>2011-10-08T14:06:48Z</time>
      </trkpt>
      <trkpt lat="45.96539" lon="3.5618">
        <ele>623.83295</ele>
        <time>2011-10-08T14:06:45Z</time>
      </trkpt>
      <trkpt lat="45.96538" lon="3.56152">
        <ele>623.604</ele>
        <time>2011-10-08T14:06:42Z</time>
      </trkpt>
      <trkpt lat="45.96534" lon="3.56124">
        <ele>623.3947</ele>
        <time>2011-10-08T14:06:39Z</time>
      </trkpt>
      <trkpt lat="45.96523" lon="3.56103">
        <ele>623.60223</ele>
        <time>2011-10-08T14:06:36Z</time>
      </trkpt>
      <trkpt lat="45.96508" lon="3.56088">
        <ele>623.0572</ele>
        <time>2011-10-08T14:06:33Z</time>
      </trkpt>
      <trkpt lat="45.9649" lon="3.56077">
        <ele>622.5429</ele>
        <time>2011-10-08T14:06:30Z</time>
      </trkpt>
      <trkpt lat="45.96466" lon="3.56073">
        <ele>621.88873</ele>
        <time>2011-10-08T14:06:26Z</time>
      </trkpt>
      <trkpt lat="45.96444" lon="3.56069">
        <ele>621.98175</ele>
        <time>2011-10-08T14:06:22Z</time>
      </trkpt>
      <trkpt lat="45.96423" lon="3.56064">
        <ele>621.9422</ele>
        <time>2011-10-08T14:06:18Z</time>
      </trkpt>
      <trkpt lat="45.96402" lon="3.5606">
        <ele>621.5672</ele>
        <time>2011-10-08T14:06:11Z</time>
      </trkpt>
      <trkpt lat="45.96385" lon="3.56051">
        <ele>620.9181</ele>
        <time>2011-10-08T14:06:04Z</time>
      </trkpt>
      <trkpt lat="45.96367" lon="3.56039">
        <ele>620.1821</ele>
        <time>2011-10-08T14:05:56Z</time>
      </trkpt>
      <trkpt lat="45.96351" lon="3.56021">
        <ele>619.32196</ele>
        <time>2011-10-08T14:05:48Z</time>
      </trkpt>
      <trkpt lat="45.96335" lon="3.56004">
        <ele>617.8458</ele>
        <time>2011-10-08T14:05:40Z</time>
      </trkpt>
      <trkpt lat="45.96319" lon="3.55989">
        <ele>616.84485</ele>
        <time>2011-10-08T14:05:33Z</time>
      </trkpt>
      <trkpt lat="45.96302" lon="3.55981">
        <ele>615.8376</ele>
        <time>2011-10-08T14:05:26Z</time>
      </trkpt>
      <trkpt lat="45.96283" lon="3.55972">
        <ele>614.7112</ele>
        <time>2011-10-08T14:05:18Z</time>
      </trkpt>
      <trkpt lat="45.96263" lon="3.55966">
        <ele>613.4855</ele>
        <time>2011-10-08T14:05:10Z</time>
      </trkpt>
      <trkpt lat="45.96244" lon="3.55961">
        <ele>611.7658</ele>
        <time>2011-10-08T14:05:01Z</time>
      </trkpt>
      <trkpt lat="45.96225" lon="3.55961">
        <ele>610.2513</ele>
        <time>2011-10-08T14:04:52Z</time>
      </trkpt>
      <trkpt lat="45.96207" lon="3.55961">
        <ele>608.064</ele>
        <time>2011-10-08T14:04:42Z</time>
      </trkpt>
      <trkpt lat="45.96188" lon="3.55968">
        <ele>606.81055</ele>
        <time>2011-10-08T14:04:31Z</time>
      </trkpt>
      <trkpt lat="45.9617" lon="3.55963">
        <ele>605.2543</ele>
        <time>2011-10-08T14:04:22Z</time>
      </trkpt>
      <trkpt lat="45.96152" lon="3.55959">
        <ele>602.39056</ele>
        <time>2011-10-08T14:04:13Z</time>
      </trkpt>
      <trkpt lat="45.96133" lon="3.55953">
        <ele>600.8893</ele>
        <time>2011-10-08T14:04:02Z</time>
      </trkpt>
      <trkpt lat="45.96116" lon="3.55938">
        <ele>599.7482</ele>
        <time>2011-10-08T14:03:51Z</time>
      </trkpt>
      <trkpt lat="45.96099" lon="3.55927">
        <ele>598.6575</ele>
        <time>2011-10-08T14:03:40Z</time>
      </trkpt>
      <trkpt lat="45.96082" lon="3.55914">
        <ele>597.6519</ele>
        <time>2011-10-08T14:03:31Z</time>
      </trkpt>
      <trkpt lat="45.96065" lon="3.55899">
        <ele>596.5781</ele>
        <time>2011-10-08T14:03:22Z</time>
      </trkpt>
      <trkpt lat="45.96049" lon="3.55884">
        <ele>595.99994</ele>
        <time>2011-10-08T14:03:13Z</time>
      </trkpt>
      <trkpt lat="45.96033" lon="3.55869">
        <ele>595.999</ele>
        <time>2011-10-08T14:03:04Z</time>
      </trkpt>
      <trkpt lat="45.96019" lon="3.55852">
        <ele>595.99</ele>
        <time>2011-10-08T14:02:56Z</time>
      </trkpt>
      <trkpt lat="45.96005" lon="3.55833">
        <ele>595.9249</ele>
        <time>2011-10-08T14:02:49Z</time>
      </trkpt>
      <trkpt lat="45.95994" lon="3.55809">
        <ele>595.4375</ele>
        <time>2011-10-08T14:02:42Z</time>
      </trkpt>
      <trkpt lat="45.9598" lon="3.55785">
        <ele>595</ele>
        <time>2011-10-08T14:02:32Z</time>
      </trkpt>
      <trkpt lat="45.95963" lon="3.55772">
        <ele>591.2865</ele>
        <time>2011-10-08T14:00:32Z</time>
      </trkpt>
      <trkpt lat="45.95945" lon="3.5577">
        <ele>585.4314</ele>
        <time>2011-10-08T14:00:12Z</time>
      </trkpt>
      <trkpt lat="45.95927" lon="3.55775">
        <ele>580.52496</ele>
        <time>2011-10-08T14:00:01Z</time>
      </trkpt>
      <trkpt lat="45.95908" lon="3.55781">
        <ele>577.3324</ele>
        <time>2011-10-08T13:59:52Z</time>
      </trkpt>
      <trkpt lat="45.95891" lon="3.55772">
        <ele>575.4924</ele>
        <time>2011-10-08T13:59:45Z</time>
      </trkpt>
      <trkpt lat="45.95873" lon="3.55781">
        <ele>573.42303</ele>
        <time>2011-10-08T13:59:37Z</time>
      </trkpt>
      <trkpt lat="45.95872" lon="3.55809">
        <ele>571.8383</ele>
        <time>2011-10-08T13:59:30Z</time>
      </trkpt>
      <trkpt lat="45.95888" lon="3.55822">
        <ele>570.7885</ele>
        <time>2011-10-08T13:59:23Z</time>
      </trkpt>
      <trkpt lat="45.95905" lon="3.55837">
        <ele>569.74915</ele>
        <time>2011-10-08T13:59:16Z</time>
      </trkpt>
      <trkpt lat="45.95915" lon="3.55863">
        <ele>568.9238</ele>
        <time>2011-10-08T13:59:10Z</time>
      </trkpt>
      <trkpt lat="45.95915" lon="3.55893">
        <ele>568.4293</ele>
        <time>2011-10-08T13:59:03Z</time>
      </trkpt>
      <trkpt lat="45.95909" lon="3.55921">
        <ele>567.93884</ele>
        <time>2011-10-08T13:58:56Z</time>
      </trkpt>
      <trkpt lat="45.95904" lon="3.55948">
        <ele>567.54175</ele>
        <time>2011-10-08T13:58:49Z</time>
      </trkpt>
      <trkpt lat="45.95896" lon="3.55972">
        <ele>566.79565</ele>
        <time>2011-10-08T13:58:43Z</time>
      </trkpt>
      <trkpt lat="45.95885" lon="3.55994">
        <ele>565.85175</ele>
        <time>2011-10-08T13:58:37Z</time>
      </trkpt>
      <trkpt lat="45.9587" lon="3.56009">
        <ele>565.1672</ele>
        <time>2011-10-08T13:58:31Z</time>
      </trkpt>
      <trkpt lat="45.95851" lon="3.56021">
        <ele>564.37933</ele>
        <time>2011-10-08T13:58:24Z</time>
      </trkpt>
      <trkpt lat="45.95835" lon="3.56034">
        <ele>563.6732</ele>
        <time>2011-10-08T13:58:18Z</time>
      </trkpt>
      <trkpt lat="45.95816" lon="3.56047">
        <ele>562.9225</ele>
        <time>2011-10-08T13:58:11Z</time>
      </trkpt>
      <trkpt lat="45.95799" lon="3.56056">
        <ele>562.56445</ele>
        <time>2011-10-08T13:58:05Z</time>
      </trkpt>
      <trkpt lat="45.95781" lon="3.56066">
        <ele>561.89734</ele>
        <time>2011-10-08T13:57:58Z</time>
      </trkpt>
      <trkpt lat="45.95763" lon="3.56081">
        <ele>561.23114</ele>
        <time>2011-10-08T13:57:51Z</time>
      </trkpt>
      <trkpt lat="45.95747" lon="3.56099">
        <ele>560.8585</ele>
        <time>2011-10-08T13:57:44Z</time>
      </trkpt>
      <trkpt lat="45.95731" lon="3.56116">
        <ele>559.9403</ele>
        <time>2011-10-08T13:57:37Z</time>
      </trkpt>
      <trkpt lat="45.95717" lon="3.56133">
        <ele>559.66473</ele>
        <time>2011-10-08T13:57:31Z</time>
      </trkpt>
      <trkpt lat="45.95703" lon="3.56157">
        <ele>558.8114</ele>
        <time>2011-10-08T13:57:23Z</time>
      </trkpt>
      <trkpt lat="45.95693" lon="3.56178">
        <ele>557.8942</ele>
        <time>2011-10-08T13:57:15Z</time>
      </trkpt>
      <trkpt lat="45.9568" lon="3.562">
        <ele>556.92444</ele>
        <time>2011-10-08T13:57:06Z</time>
      </trkpt>
      <trkpt lat="45.95671" lon="3.56223">
        <ele>555.992</ele>
        <time>2011-10-08T13:56:56Z</time>
      </trkpt>
      <trkpt lat="45.95667" lon="3.56249">
        <ele>555.85767</ele>
        <time>2011-10-08T13:56:46Z</time>
      </trkpt>
      <trkpt lat="45.95662" lon="3.56275">
        <ele>554.7206</ele>
        <time>2011-10-08T13:56:34Z</time>
      </trkpt>
      <trkpt lat="45.95652" lon="3.56298">
        <ele>552.6712</ele>
        <time>2011-10-08T13:56:22Z</time>
      </trkpt>
      <trkpt lat="45.95633" lon="3.56292">
        <ele>549.0338</ele>
        <time>2011-10-08T13:56:02Z</time>
      </trkpt>
      <trkpt lat="45.95614" lon="3.56294">
        <ele>547.4909</ele>
        <time>2011-10-08T13:55:53Z</time>
      </trkpt>
      <trkpt lat="45.95596" lon="3.56298">
        <ele>545.7121</ele>
        <time>2011-10-08T13:55:42Z</time>
      </trkpt>
      <trkpt lat="45.9558" lon="3.56311">
        <ele>543.8023</ele>
        <time>2011-10-08T13:55:31Z</time>
      </trkpt>
      <trkpt lat="45.95563" lon="3.56326">
        <ele>542.5334</ele>
        <time>2011-10-08T13:55:20Z</time>
      </trkpt>
      <trkpt lat="45.95545" lon="3.56339">
        <ele>541.206</ele>
        <time>2011-10-08T13:55:10Z</time>
      </trkpt>
      <trkpt lat="45.95527" lon="3.56352">
        <ele>539.95776</ele>
        <time>2011-10-08T13:54:59Z</time>
      </trkpt>
      <trkpt lat="45.9551" lon="3.56363">
        <ele>539</ele>
        <time>2011-10-08T13:54:48Z</time>
      </trkpt>
      <trkpt lat="45.95492" lon="3.56371">
        <ele>532.40625</ele>
        <time>2011-10-08T13:53:02Z</time>
      </trkpt>
      <trkpt lat="45.95474" lon="3.56375">
        <ele>529.6225</ele>
        <time>2011-10-08T13:52:48Z</time>
      </trkpt>
      <trkpt lat="45.95457" lon="3.56386">
        <ele>527.8488</ele>
        <time>2011-10-08T13:52:36Z</time>
      </trkpt>
      <trkpt lat="45.95438" lon="3.5638">
        <ele>525.22614</ele>
        <time>2011-10-08T13:52:18Z</time>
      </trkpt>
      <trkpt lat="45.95438" lon="3.5635">
        <ele>523.4167</ele>
        <time>2011-10-08T13:52:11Z</time>
      </trkpt>
      <trkpt lat="45.95442" lon="3.5632">
        <ele>521.0006</ele>
        <time>2011-10-08T13:52:04Z</time>
      </trkpt>
      <trkpt lat="45.9545" lon="3.56296">
        <ele>517.8266</ele>
        <time>2011-10-08T13:51:54Z</time>
      </trkpt>
      <trkpt lat="45.95461" lon="3.56275">
        <ele>515.24426</ele>
        <time>2011-10-08T13:51:43Z</time>
      </trkpt>
      <trkpt lat="45.95462" lon="3.56247">
        <ele>512.26135</ele>
        <time>2011-10-08T13:51:30Z</time>
      </trkpt>
      <trkpt lat="45.95457" lon="3.56221">
        <ele>509.98987</ele>
        <time>2011-10-08T13:51:19Z</time>
      </trkpt>
      <trkpt lat="45.95446" lon="3.562">
        <ele>507.3881</ele>
        <time>2011-10-08T13:51:08Z</time>
      </trkpt>
      <trkpt lat="45.95427" lon="3.56191">
        <ele>504.19666</ele>
        <time>2011-10-08T13:50:54Z</time>
      </trkpt>
      <trkpt lat="45.95408" lon="3.56189">
        <ele>501.88342</ele>
        <time>2011-10-08T13:50:44Z</time>
      </trkpt>
      <trkpt lat="45.9539" lon="3.56187">
        <ele>499.7088</ele>
        <time>2011-10-08T13:50:36Z</time>
      </trkpt>
      <trkpt lat="45.95371" lon="3.5618">
        <ele>497.0881</ele>
        <time>2011-10-08T13:50:28Z</time>
      </trkpt>
      <trkpt lat="45.95353" lon="3.56176">
        <ele>494.88025</ele>
        <time>2011-10-08T13:50:20Z</time>
      </trkpt>
      <trkpt lat="45.95333" lon="3.56174">
        <ele>492.67697</ele>
        <time>2011-10-08T13:50:12Z</time>
      </trkpt>
      <trkpt lat="45.95315" lon="3.56174">
        <ele>490.0776</ele>
        <time>2011-10-08T13:50:05Z</time>
      </trkpt>
      <trkpt lat="45.95296" lon="3.56174">
        <ele>487.77557</ele>
        <time>2011-10-08T13:49:57Z</time>
      </trkpt>
      <trkpt lat="45.95276" lon="3.56174">
        <ele>484.6291</ele>
        <time>2011-10-08T13:49:46Z</time>
      </trkpt>
      <trkpt lat="45.95257" lon="3.56176">
        <ele>483.03192</ele>
        <time>2011-10-08T13:49:36Z</time>
      </trkpt>
      <trkpt lat="45.95238" lon="3.56174">
        <ele>484.0075</ele>
        <time>2011-10-08T13:49:24Z</time>
      </trkpt>
      <trkpt lat="45.95233" lon="3.56148">
        <ele>484.42188</ele>
        <time>2011-10-08T13:49:10Z</time>
      </trkpt>
      <trkpt lat="45.95243" lon="3.56124">
        <ele>485</ele>
        <time>2011-10-08T13:49:00Z</time>
      </trkpt>
      <trkpt lat="45.95255" lon="3.56103">
        <ele>484.99982</ele>
        <time>2011-10-08T13:48:51Z</time>
      </trkpt>
      <trkpt lat="45.95269" lon="3.56084">
        <ele>484.99222</ele>
        <time>2011-10-08T13:48:38Z</time>
      </trkpt>
      <trkpt lat="45.95283" lon="3.56066">
        <ele>484.22232</ele>
        <time>2011-10-08T13:48:22Z</time>
      </trkpt>
      <trkpt lat="45.95296" lon="3.56047">
        <ele>479.4117</ele>
        <time>2011-10-08T13:47:51Z</time>
      </trkpt>
      <trkpt lat="45.95273" lon="3.56043">
        <ele>476.2503</ele>
        <time>2011-10-08T13:47:32Z</time>
      </trkpt>
      <trkpt lat="45.95255" lon="3.56043">
        <ele>476.00977</ele>
        <time>2011-10-08T13:47:20Z</time>
      </trkpt>
      <trkpt lat="45.95235" lon="3.56045">
        <ele>476.23145</ele>
        <time>2011-10-08T13:47:09Z</time>
      </trkpt>
      <trkpt lat="45.95211" lon="3.56049">
        <ele>479.25</ele>
        <time>2011-10-08T13:46:56Z</time>
      </trkpt>
      <trkpt lat="45.95189" lon="3.56054">
        <ele>485.0511</ele>
        <time>2011-10-08T13:45:22Z</time>
      </trkpt>
      <trkpt lat="45.95208" lon="3.56047">
        <ele>492.71317</ele>
        <time>2011-10-08T13:45:13Z</time>
      </trkpt>
      <trkpt lat="45.95224" lon="3.5603">
        <ele>496.94974</ele>
        <time>2011-10-08T13:45:10Z</time>
      </trkpt>
      <trkpt lat="45.95222" lon="3.56">
        <ele>501.25125</ele>
        <time>2011-10-08T13:45:07Z</time>
      </trkpt>
      <trkpt lat="45.95208" lon="3.5597">
        <ele>505.63257</ele>
        <time>2011-10-08T13:45:04Z</time>
      </trkpt>
      <trkpt lat="45.95188" lon="3.55955">
        <ele>510.092</ele>
        <time>2011-10-08T13:45:01Z</time>
      </trkpt>
      <trkpt lat="45.95167" lon="3.55951">
        <ele>514.2551</ele>
        <time>2011-10-08T13:44:58Z</time>
      </trkpt>
      <trkpt lat="45.95149" lon="3.55942">
        <ele>517.864</ele>
        <time>2011-10-08T13:44:55Z</time>
      </trkpt>
      <trkpt lat="45.95134" lon="3.55923">
        <ele>521.0109</ele>
        <time>2011-10-08T13:44:52Z</time>
      </trkpt>
      <trkpt lat="45.9513" lon="3.55897">
        <ele>523.0195</ele>
        <time>2011-10-08T13:44:50Z</time>
      </trkpt>
      <trkpt lat="45.95127" lon="3.55869">
        <ele>525.0346</ele>
        <time>2011-10-08T13:44:48Z</time>
      </trkpt>
      <trkpt lat="45.9513" lon="3.55833">
        <ele>528.082</ele>
        <time>2011-10-08T13:44:45Z</time>
      </trkpt>
      <trkpt lat="45.95138" lon="3.55809">
        <ele>529.8124</ele>
        <time>2011-10-08T13:44:43Z</time>
      </trkpt>
      <trkpt lat="45.95148" lon="3.55783">
        <ele>532.5553</ele>
        <time>2011-10-08T13:44:40Z</time>
      </trkpt>
      <trkpt lat="45.95168" lon="3.55768">
        <ele>536.37225</ele>
        <time>2011-10-08T13:44:36Z</time>
      </trkpt>
      <trkpt lat="45.95191" lon="3.55768">
        <ele>539.8823</ele>
        <time>2011-10-08T13:44:33Z</time>
      </trkpt>
      <trkpt lat="45.95212" lon="3.55775">
        <ele>543.75806</ele>
        <time>2011-10-08T13:44:30Z</time>
      </trkpt>
      <trkpt lat="45.95233" lon="3.55775">
        <ele>547.79694</ele>
        <time>2011-10-08T13:44:27Z</time>
      </trkpt>
      <trkpt lat="45.95253" lon="3.5576">
        <ele>551.55566</ele>
        <time>2011-10-08T13:44:24Z</time>
      </trkpt>
      <trkpt lat="45.95271" lon="3.55736">
        <ele>554.9838</ele>
        <time>2011-10-08T13:44:21Z</time>
      </trkpt>
      <trkpt lat="45.95283" lon="3.55715">
        <ele>556.97125</ele>
        <time>2011-10-08T13:44:19Z</time>
      </trkpt>
      <trkpt lat="45.95296" lon="3.55691">
        <ele>558.61554</ele>
        <time>2011-10-08T13:44:17Z</time>
      </trkpt>
      <trkpt lat="45.95317" lon="3.55674">
        <ele>560.05164</ele>
        <time>2011-10-08T13:44:14Z</time>
      </trkpt>
      <trkpt lat="45.95336" lon="3.55663">
        <ele>561.3141</ele>
        <time>2011-10-08T13:44:12Z</time>
      </trkpt>
      <trkpt lat="45.95354" lon="3.55654">
        <ele>562.7806</ele>
        <time>2011-10-08T13:44:10Z</time>
      </trkpt>
      <trkpt lat="45.95374" lon="3.55644">
        <ele>564.60986</ele>
        <time>2011-10-08T13:44:08Z</time>
      </trkpt>
      <trkpt lat="45.95394" lon="3.55635">
        <ele>566.30646</ele>
        <time>2011-10-08T13:44:06Z</time>
      </trkpt>
      <trkpt lat="45.95418" lon="3.55629">
        <ele>568.10034</ele>
        <time>2011-10-08T13:44:04Z</time>
      </trkpt>
      <trkpt lat="45.95442" lon="3.55622">
        <ele>570.17834</ele>
        <time>2011-10-08T13:44:02Z</time>
      </trkpt>
      <trkpt lat="45.95461" lon="3.55616">
        <ele>572.3171</ele>
        <time>2011-10-08T13:44:00Z</time>
      </trkpt>
      <trkpt lat="45.95481" lon="3.55612">
        <ele>574.5637</ele>
        <time>2011-10-08T13:43:58Z</time>
      </trkpt>
      <trkpt lat="45.95506" lon="3.55603">
        <ele>577.00214</ele>
        <time>2011-10-08T13:43:56Z</time>
      </trkpt>
      <trkpt lat="45.95531" lon="3.55592">
        <ele>579.4482</ele>
        <time>2011-10-08T13:43:54Z</time>
      </trkpt>
      <trkpt lat="45.95551" lon="3.55579">
        <ele>581.7968</ele>
        <time>2011-10-08T13:43:52Z</time>
      </trkpt>
      <trkpt lat="45.95568" lon="3.5556">
        <ele>583.6388</ele>
        <time>2011-10-08T13:43:50Z</time>
      </trkpt>
      <trkpt lat="45.95586" lon="3.55541">
        <ele>585.35785</ele>
        <time>2011-10-08T13:43:48Z</time>
      </trkpt>
      <trkpt lat="45.95607" lon="3.5553">
        <ele>586.85834</ele>
        <time>2011-10-08T13:43:46Z</time>
      </trkpt>
      <trkpt lat="45.95629" lon="3.55517">
        <ele>587.9704</ele>
        <time>2011-10-08T13:43:44Z</time>
      </trkpt>
      <trkpt lat="45.9565" lon="3.55509">
        <ele>588.72516</ele>
        <time>2011-10-08T13:43:42Z</time>
      </trkpt>
      <trkpt lat="45.95669" lon="3.55504">
        <ele>588.9559</ele>
        <time>2011-10-08T13:43:40Z</time>
      </trkpt>
      <trkpt lat="45.95687" lon="3.555">
        <ele>588.9215</ele>
        <time>2011-10-08T13:43:38Z</time>
      </trkpt>
      <trkpt lat="45.95714" lon="3.55494">
        <ele>588.81396</ele>
        <time>2011-10-08T13:43:35Z</time>
      </trkpt>
      <trkpt lat="45.95734" lon="3.55485">
        <ele>588.55896</ele>
        <time>2011-10-08T13:43:32Z</time>
      </trkpt>
      <trkpt lat="45.95754" lon="3.55476">
        <ele>587.9546</ele>
        <time>2011-10-08T13:43:29Z</time>
      </trkpt>
      <trkpt lat="45.95771" lon="3.55466">
        <ele>586.85535</ele>
        <time>2011-10-08T13:43:26Z</time>
      </trkpt>
      <trkpt lat="45.95787" lon="3.55453">
        <ele>585.28674</ele>
        <time>2011-10-08T13:43:23Z</time>
      </trkpt>
      <trkpt lat="45.95803" lon="3.55431">
        <ele>582.6963</ele>
        <time>2011-10-08T13:43:19Z</time>
      </trkpt>
      <trkpt lat="45.95819" lon="3.55414">
        <ele>580.2181</ele>
        <time>2011-10-08T13:42:02Z</time>
      </trkpt>
      <trkpt lat="45.9583" lon="3.55393">
        <ele>578.9925</ele>
        <time>2011-10-08T13:41:50Z</time>
      </trkpt>
      <trkpt lat="45.95817" lon="3.55369">
        <ele>578.9249</ele>
        <time>2011-10-08T13:41:42Z</time>
      </trkpt>
      <trkpt lat="45.95804" lon="3.55348">
        <ele>578.4375</ele>
        <time>2011-10-08T13:41:35Z</time>
      </trkpt>
      <trkpt lat="45.9579" lon="3.55328">
        <ele>578</ele>
        <time>2011-10-08T13:41:29Z</time>
      </trkpt>
      <trkpt lat="45.95776" lon="3.55309">
        <ele>578.0001</ele>
        <time>2011-10-08T13:41:23Z</time>
      </trkpt>
      <trkpt lat="45.95759" lon="3.55292">
        <ele>578.0008</ele>
        <time>2011-10-08T13:41:17Z</time>
      </trkpt>
      <trkpt lat="45.9574" lon="3.55277">
        <ele>578.00446</ele>
        <time>2011-10-08T13:41:11Z</time>
      </trkpt>
      <trkpt lat="45.95723" lon="3.55268">
        <ele>578.01886</ele>
        <time>2011-10-08T13:41:06Z</time>
      </trkpt>
      <trkpt lat="45.95702" lon="3.55258">
        <ele>578.0794</ele>
        <time>2011-10-08T13:41:01Z</time>
      </trkpt>
      <trkpt lat="45.95688" lon="3.5524">
        <ele>578.44635</ele>
        <time>2011-10-08T13:40:55Z</time>
      </trkpt>
      <trkpt lat="45.95681" lon="3.55215">
        <ele>579.103</ele>
        <time>2011-10-08T13:40:50Z</time>
      </trkpt>
      <trkpt lat="45.95675" lon="3.55189">
        <ele>579.43427</ele>
        <time>2011-10-08T13:40:45Z</time>
      </trkpt>
      <trkpt lat="45.95671" lon="3.55163">
        <ele>580.37244</ele>
        <time>2011-10-08T13:40:41Z</time>
      </trkpt>
      <trkpt lat="45.95666" lon="3.55133">
        <ele>581.9672</ele>
        <time>2011-10-08T13:40:37Z</time>
      </trkpt>
      <trkpt lat="45.95657" lon="3.55105">
        <ele>583.2792</ele>
        <time>2011-10-08T13:40:33Z</time>
      </trkpt>
      <trkpt lat="45.95645" lon="3.55079">
        <ele>584.33905</ele>
        <time>2011-10-08T13:40:29Z</time>
      </trkpt>
      <trkpt lat="45.95634" lon="3.55056">
        <ele>584.7382</ele>
        <time>2011-10-08T13:40:25Z</time>
      </trkpt>
      <trkpt lat="45.95627" lon="3.55028">
        <ele>584.17255</ele>
        <time>2011-10-08T13:40:21Z</time>
      </trkpt>
      <trkpt lat="45.95631" lon="3.55">
        <ele>581.84656</ele>
        <time>2011-10-08T13:40:16Z</time>
      </trkpt>
      <trkpt lat="45.9564" lon="3.54976">
        <ele>581.05817</ele>
        <time>2011-10-08T13:40:12Z</time>
      </trkpt>
      <trkpt lat="45.95642" lon="3.54944">
        <ele>581.2451</ele>
        <time>2011-10-08T13:40:07Z</time>
      </trkpt>
      <trkpt lat="45.95644" lon="3.54916">
        <ele>581.7747</ele>
        <time>2011-10-08T13:40:03Z</time>
      </trkpt>
      <trkpt lat="45.95639" lon="3.54891">
        <ele>583.1151</ele>
        <time>2011-10-08T13:39:59Z</time>
      </trkpt>
      <trkpt lat="45.95628" lon="3.54867">
        <ele>584.7465</ele>
        <time>2011-10-08T13:39:55Z</time>
      </trkpt>
      <trkpt lat="45.95616" lon="3.54841">
        <ele>586.0348</ele>
        <time>2011-10-08T13:39:50Z</time>
      </trkpt>
      <trkpt lat="45.95606" lon="3.54813">
        <ele>586.1466</ele>
        <time>2011-10-08T13:39:45Z</time>
      </trkpt>
      <trkpt lat="45.95598" lon="3.5479">
        <ele>586.4633</ele>
        <time>2011-10-08T13:39:41Z</time>
      </trkpt>
      <trkpt lat="45.95591" lon="3.54764">
        <ele>587.131</ele>
        <time>2011-10-08T13:39:37Z</time>
      </trkpt>
      <trkpt lat="45.95585" lon="3.54736">
        <ele>587.41394</ele>
        <time>2011-10-08T13:39:33Z</time>
      </trkpt>
      <trkpt lat="45.95578" lon="3.5471">
        <ele>587.975</ele>
        <time>2011-10-08T13:39:29Z</time>
      </trkpt>
      <trkpt lat="45.95572" lon="3.54685">
        <ele>587.92084</ele>
        <time>2011-10-08T13:39:25Z</time>
      </trkpt>
      <trkpt lat="45.95567" lon="3.54655">
        <ele>587.6664</ele>
        <time>2011-10-08T13:39:20Z</time>
      </trkpt>
      <trkpt lat="45.95563" lon="3.54629">
        <ele>586.9457</ele>
        <time>2011-10-08T13:39:16Z</time>
      </trkpt>
      <trkpt lat="45.95559" lon="3.54599">
        <ele>585.71765</ele>
        <time>2011-10-08T13:39:11Z</time>
      </trkpt>
      <trkpt lat="45.95554" lon="3.54573">
        <ele>585.14355</ele>
        <time>2011-10-08T13:39:06Z</time>
      </trkpt>
      <trkpt lat="45.9555" lon="3.54543">
        <ele>585.60504</ele>
        <time>2011-10-08T13:39:01Z</time>
      </trkpt>
      <trkpt lat="45.95548" lon="3.54511">
        <ele>586.17926</ele>
        <time>2011-10-08T13:38:56Z</time>
      </trkpt>
      <trkpt lat="45.95546" lon="3.54485">
        <ele>586.56647</ele>
        <time>2011-10-08T13:38:52Z</time>
      </trkpt>
      <trkpt lat="45.9554" lon="3.54455">
        <ele>587.0168</ele>
        <time>2011-10-08T13:38:47Z</time>
      </trkpt>
      <trkpt lat="45.95537" lon="3.54427">
        <ele>587.07074</ele>
        <time>2011-10-08T13:38:42Z</time>
      </trkpt>
      <trkpt lat="45.95536" lon="3.54399">
        <ele>587.3976</ele>
        <time>2011-10-08T13:38:36Z</time>
      </trkpt>
      <trkpt lat="45.95535" lon="3.54367">
        <ele>587.8635</ele>
        <time>2011-10-08T13:38:30Z</time>
      </trkpt>
      <trkpt lat="45.95535" lon="3.54337">
        <ele>587.42487</ele>
        <time>2011-10-08T13:38:25Z</time>
      </trkpt>
      <trkpt lat="45.95536" lon="3.54307">
        <ele>586.3541</ele>
        <time>2011-10-08T13:38:20Z</time>
      </trkpt>
      <trkpt lat="45.9554" lon="3.54277">
        <ele>584.61163</ele>
        <time>2011-10-08T13:38:15Z</time>
      </trkpt>
      <trkpt lat="45.95544" lon="3.54251">
        <ele>583.68036</ele>
        <time>2011-10-08T13:38:10Z</time>
      </trkpt>
      <trkpt lat="45.95549" lon="3.54223">
        <ele>582.982</ele>
        <time>2011-10-08T13:38:04Z</time>
      </trkpt>
      <trkpt lat="45.95552" lon="3.54198">
        <ele>582.92413</ele>
        <time>2011-10-08T13:37:59Z</time>
      </trkpt>
      <trkpt lat="45.95556" lon="3.54172">
        <ele>582.5737</ele>
        <time>2011-10-08T13:37:53Z</time>
      </trkpt>
      <trkpt lat="45.9556" lon="3.54146">
        <ele>581.96686</ele>
        <time>2011-10-08T13:37:46Z</time>
      </trkpt>
      <trkpt lat="45.95567" lon="3.54118">
        <ele>581.4117</ele>
        <time>2011-10-08T13:37:36Z</time>
      </trkpt>
      <trkpt lat="45.95576" lon="3.54095">
        <ele>580.7423</ele>
        <time>2011-10-08T13:37:28Z</time>
      </trkpt>
      <trkpt lat="45.95586" lon="3.54073">
        <ele>579.79645</ele>
        <time>2011-10-08T13:37:20Z</time>
      </trkpt>
      <trkpt lat="45.95593" lon="3.54047">
        <ele>578.7443</ele>
        <time>2011-10-08T13:37:12Z</time>
      </trkpt>
      <trkpt lat="45.95599" lon="3.54022">
        <ele>577.8622</ele>
        <time>2011-10-08T13:37:05Z</time>
      </trkpt>
      <trkpt lat="45.95599" lon="3.53994">
        <ele>576.9567</ele>
        <time>2011-10-08T13:36:57Z</time>
      </trkpt>
      <trkpt lat="45.95597" lon="3.53966">
        <ele>576.67584</ele>
        <time>2011-10-08T13:36:50Z</time>
      </trkpt>
      <trkpt lat="45.95596" lon="3.53938">
        <ele>575.942</ele>
        <time>2011-10-08T13:36:43Z</time>
      </trkpt>
      <trkpt lat="45.95594" lon="3.53912">
        <ele>575.6742</ele>
        <time>2011-10-08T13:36:37Z</time>
      </trkpt>
      <trkpt lat="45.9559" lon="3.53882">
        <ele>574.9471</ele>
        <time>2011-10-08T13:36:31Z</time>
      </trkpt>
      <trkpt lat="45.95587" lon="3.53856">
        <ele>574.77704</ele>
        <time>2011-10-08T13:36:26Z</time>
      </trkpt>
      <trkpt lat="45.95587" lon="3.53828">
        <ele>573.7474</ele>
        <time>2011-10-08T13:36:20Z</time>
      </trkpt>
      <trkpt lat="45.95584" lon="3.53801">
        <ele>572.93536</ele>
        <time>2011-10-08T13:36:15Z</time>
      </trkpt>
      <trkpt lat="45.95577" lon="3.53777">
        <ele>570.97046</ele>
        <time>2011-10-08T13:36:06Z</time>
      </trkpt>
      <trkpt lat="45.95566" lon="3.53753">
        <ele>568.9995</ele>
        <time>2011-10-08T13:35:55Z</time>
      </trkpt>
      <trkpt lat="45.95575" lon="3.5373">
        <ele>568.9793</ele>
        <time>2011-10-08T13:35:42Z</time>
      </trkpt>
      <trkpt lat="45.95593" lon="3.53723">
        <ele>568.5104</ele>
        <time>2011-10-08T13:35:31Z</time>
      </trkpt>
      <trkpt lat="45.95607" lon="3.5374">
        <ele>567.09735</ele>
        <time>2011-10-08T13:35:22Z</time>
      </trkpt>
      <trkpt lat="45.95619" lon="3.53764">
        <ele>564.8993</ele>
        <time>2011-10-08T13:35:07Z</time>
      </trkpt>
      <trkpt lat="45.95636" lon="3.53773">
        <ele>562.8427</ele>
        <time>2011-10-08T13:34:34Z</time>
      </trkpt>
      <trkpt lat="45.95634" lon="3.53747">
        <ele>561.4364</ele>
        <time>2011-10-08T13:34:23Z</time>
      </trkpt>
      <trkpt lat="45.95631" lon="3.53721">
        <ele>558.5831</ele>
        <time>2011-10-08T13:34:10Z</time>
      </trkpt>
      <trkpt lat="45.95626" lon="3.53695">
        <ele>556.39874</ele>
        <time>2011-10-08T13:33:59Z</time>
      </trkpt>
      <trkpt lat="45.95623" lon="3.5367">
        <ele>553.55194</ele>
        <time>2011-10-08T13:33:47Z</time>
      </trkpt>
      <trkpt lat="45.95622" lon="3.53642">
        <ele>549.9524</ele>
        <time>2011-10-08T13:33:34Z</time>
      </trkpt>
      <trkpt lat="45.95623" lon="3.53614">
        <ele>543.70825</ele>
        <time>2011-10-08T13:33:18Z</time>
      </trkpt>
      <trkpt lat="45.95626" lon="3.53588">
        <ele>539.11957</ele>
        <time>2011-10-08T13:33:03Z</time>
      </trkpt>
      <trkpt lat="45.95613" lon="3.53569">
        <ele>534.4681</ele>
        <time>2011-10-08T13:32:44Z</time>
      </trkpt>
      <trkpt lat="45.9561" lon="3.53543">
        <ele>531.1883</ele>
        <time>2011-10-08T13:32:32Z</time>
      </trkpt>
      <trkpt lat="45.95621" lon="3.53522">
        <ele>528.6466</ele>
        <time>2011-10-08T13:32:21Z</time>
      </trkpt>
      <trkpt lat="45.9564" lon="3.53517">
        <ele>527.63043</ele>
        <time>2011-10-08T13:32:13Z</time>
      </trkpt>
      <trkpt lat="45.95659" lon="3.53515">
        <ele>525.65564</ele>
        <time>2011-10-08T13:32:01Z</time>
      </trkpt>
      <trkpt lat="45.95678" lon="3.53517">
        <ele>523.9306</ele>
        <time>2011-10-08T13:31:53Z</time>
      </trkpt>
      <trkpt lat="45.95696" lon="3.53519">
        <ele>521.9069</ele>
        <time>2011-10-08T13:31:44Z</time>
      </trkpt>
      <trkpt lat="45.95714" lon="3.53522">
        <ele>519.9435</ele>
        <time>2011-10-08T13:31:36Z</time>
      </trkpt>
      <trkpt lat="45.9573" lon="3.53509">
        <ele>517.71606</ele>
        <time>2011-10-08T13:31:28Z</time>
      </trkpt>
      <trkpt lat="45.95732" lon="3.53481">
        <ele>515.37054</ele>
        <time>2011-10-08T13:31:21Z</time>
      </trkpt>
      <trkpt lat="45.95732" lon="3.53451">
        <ele>513.2602</ele>
        <time>2011-10-08T13:31:13Z</time>
      </trkpt>
      <trkpt lat="45.95721" lon="3.53427">
        <ele>511.22128</ele>
        <time>2011-10-08T13:31:03Z</time>
      </trkpt>
      <trkpt lat="45.95702" lon="3.53423">
        <ele>509.6181</ele>
        <time>2011-10-08T13:30:55Z</time>
      </trkpt>
      <trkpt lat="45.95683" lon="3.53423">
        <ele>508.63196</ele>
        <time>2011-10-08T13:30:49Z</time>
      </trkpt>
      <trkpt lat="45.95664" lon="3.53419">
        <ele>507.70984</ele>
        <time>2011-10-08T13:30:43Z</time>
      </trkpt>
      <trkpt lat="45.95647" lon="3.53408">
        <ele>506.60394</ele>
        <time>2011-10-08T13:30:36Z</time>
      </trkpt>
      <trkpt lat="45.95635" lon="3.53386">
        <ele>504.93918</ele>
        <time>2011-10-08T13:30:27Z</time>
      </trkpt>
      <trkpt lat="45.95645" lon="3.53365">
        <ele>503.92017</ele>
        <time>2011-10-08T13:30:17Z</time>
      </trkpt>
      <trkpt lat="45.95659" lon="3.53348">
        <ele>503.40195</ele>
        <time>2011-10-08T13:30:10Z</time>
      </trkpt>
      <trkpt lat="45.95672" lon="3.53328">
        <ele>502.73373</ele>
        <time>2011-10-08T13:30:03Z</time>
      </trkpt>
      <trkpt lat="45.95687" lon="3.53309">
        <ele>501.78293</ele>
        <time>2011-10-08T13:29:56Z</time>
      </trkpt>
      <trkpt lat="45.95706" lon="3.53296">
        <ele>500.70712</ele>
        <time>2011-10-08T13:29:49Z</time>
      </trkpt>
      <trkpt lat="45.95725" lon="3.5329">
        <ele>499.5836</ele>
        <time>2011-10-08T13:29:42Z</time>
      </trkpt>
      <trkpt lat="45.95743" lon="3.53283">
        <ele>498.43808</ele>
        <time>2011-10-08T13:29:36Z</time>
      </trkpt>
      <trkpt lat="45.95761" lon="3.53279">
        <ele>496.9509</ele>
        <time>2011-10-08T13:29:29Z</time>
      </trkpt>
      <trkpt lat="45.9578" lon="3.53275">
        <ele>495.53696</ele>
        <time>2011-10-08T13:29:22Z</time>
      </trkpt>
      <trkpt lat="45.95798" lon="3.53268">
        <ele>493.90146</ele>
        <time>2011-10-08T13:29:15Z</time>
      </trkpt>
      <trkpt lat="45.95816" lon="3.53258">
        <ele>492.16656</ele>
        <time>2011-10-08T13:29:08Z</time>
      </trkpt>
      <trkpt lat="45.95829" lon="3.53236">
        <ele>490.30362</ele>
        <time>2011-10-08T13:29:01Z</time>
      </trkpt>
      <trkpt lat="45.95841" lon="3.53215">
        <ele>488.03577</ele>
        <time>2011-10-08T13:28:53Z</time>
      </trkpt>
      <trkpt lat="45.95854" lon="3.53193">
        <ele>485.76828</ele>
        <time>2011-10-08T13:28:46Z</time>
      </trkpt>
      <trkpt lat="45.95869" lon="3.53174">
        <ele>483.76147</ele>
        <time>2011-10-08T13:28:39Z</time>
      </trkpt>
      <trkpt lat="45.95884" lon="3.53153">
        <ele>481.71057</ele>
        <time>2011-10-08T13:28:32Z</time>
      </trkpt>
      <trkpt lat="45.95898" lon="3.53131">
        <ele>480.30597</ele>
        <time>2011-10-08T13:28:23Z</time>
      </trkpt>
      <trkpt lat="45.95906" lon="3.53107">
        <ele>478.44223</ele>
        <time>2011-10-08T13:28:13Z</time>
      </trkpt>
      <trkpt lat="45.95918" lon="3.53086">
        <ele>476.98184</ele>
        <time>2011-10-08T13:28:06Z</time>
      </trkpt>
      <trkpt lat="45.95932" lon="3.53069">
        <ele>475.4933</ele>
        <time>2011-10-08T13:28:00Z</time>
      </trkpt>
      <trkpt lat="45.95949" lon="3.5306">
        <ele>473.93073</ele>
        <time>2011-10-08T13:27:54Z</time>
      </trkpt>
      <trkpt lat="45.95951" lon="3.53034">
        <ele>472.53937</ele>
        <time>2011-10-08T13:27:48Z</time>
      </trkpt>
      <trkpt lat="45.95939" lon="3.53013">
        <ele>470.91946</ele>
        <time>2011-10-08T13:27:41Z</time>
      </trkpt>
      <trkpt lat="45.9592" lon="3.53007">
        <ele>469.3016</ele>
        <time>2011-10-08T13:27:34Z</time>
      </trkpt>
      <trkpt lat="45.95901" lon="3.53015">
        <ele>467.98193</ele>
        <time>2011-10-08T13:27:27Z</time>
      </trkpt>
      <trkpt lat="45.95881" lon="3.53015">
        <ele>467.75937</ele>
        <time>2011-10-08T13:27:18Z</time>
      </trkpt>
      <trkpt lat="45.9587" lon="3.52994">
        <ele>466.95587</ele>
        <time>2011-10-08T13:27:09Z</time>
      </trkpt>
      <trkpt lat="45.95872" lon="3.52968">
        <ele>466.4123</ele>
        <time>2011-10-08T13:27:00Z</time>
      </trkpt>
      <trkpt lat="45.95885" lon="3.52949">
        <ele>465.74832</ele>
        <time>2011-10-08T13:26:52Z</time>
      </trkpt>
      <trkpt lat="45.95904" lon="3.5294">
        <ele>464.85648</ele>
        <time>2011-10-08T13:26:44Z</time>
      </trkpt>
      <trkpt lat="45.95923" lon="3.52936">
        <ele>463.89957</ele>
        <time>2011-10-08T13:26:36Z</time>
      </trkpt>
      <trkpt lat="45.95942" lon="3.52936">
        <ele>462.99683</ele>
        <time>2011-10-08T13:26:28Z</time>
      </trkpt>
      <trkpt lat="45.9596" lon="3.52931">
        <ele>462.9762</ele>
        <time>2011-10-08T13:26:21Z</time>
      </trkpt>
      <trkpt lat="45.95978" lon="3.52931">
        <ele>462.86627</ele>
        <time>2011-10-08T13:26:15Z</time>
      </trkpt>
      <trkpt lat="45.95997" lon="3.52929">
        <ele>462.24866</ele>
        <time>2011-10-08T13:26:09Z</time>
      </trkpt>
      <trkpt lat="45.96018" lon="3.52925">
        <ele>461.9925</ele>
        <time>2011-10-08T13:26:03Z</time>
      </trkpt>
      <trkpt lat="45.96039" lon="3.52919">
        <ele>461.95776</ele>
        <time>2011-10-08T13:25:57Z</time>
      </trkpt>
      <trkpt lat="45.96055" lon="3.52904">
        <ele>461.6836</ele>
        <time>2011-10-08T13:25:50Z</time>
      </trkpt>
      <trkpt lat="45.96074" lon="3.52914">
        <ele>460.6419</ele>
        <time>2011-10-08T13:24:38Z</time>
      </trkpt>
      <trkpt lat="45.96091" lon="3.52929">
        <ele>459.68774</ele>
        <time>2011-10-08T13:24:31Z</time>
      </trkpt>
      <trkpt lat="45.96109" lon="3.5294">
        <ele>458.00317</ele>
        <time>2011-10-08T13:24:20Z</time>
      </trkpt>
      <trkpt lat="45.96126" lon="3.52955">
        <ele>458.0753</ele>
        <time>2011-10-08T13:24:09Z</time>
      </trkpt>
      <trkpt lat="45.96144" lon="3.52968">
        <ele>458.42307</ele>
        <time>2011-10-08T13:24:03Z</time>
      </trkpt>
      <trkpt lat="45.96161" lon="3.52983">
        <ele>459.005</ele>
        <time>2011-10-08T13:23:58Z</time>
      </trkpt>
      <trkpt lat="45.96179" lon="3.53">
        <ele>459.03745</ele>
        <time>2011-10-08T13:23:51Z</time>
      </trkpt>
      <trkpt lat="45.96197" lon="3.53015">
        <ele>460.576</ele>
        <time>2011-10-08T13:23:38Z</time>
      </trkpt>
      <trkpt lat="45.96215" lon="3.53024">
        <ele>462.82642</ele>
        <time>2011-10-08T13:23:33Z</time>
      </trkpt>
      <trkpt lat="45.96237" lon="3.5303">
        <ele>461.6996</ele>
        <time>2011-10-08T13:23:26Z</time>
      </trkpt>
      <trkpt lat="45.96256" lon="3.5303">
        <ele>458.63083</ele>
        <time>2011-10-08T13:23:22Z</time>
      </trkpt>
      <trkpt lat="45.96276" lon="3.5303">
        <ele>457.02457</ele>
        <time>2011-10-08T13:23:17Z</time>
      </trkpt>
      <trkpt lat="45.96296" lon="3.53026">
        <ele>458.6112</ele>
        <time>2011-10-08T13:22:54Z</time>
      </trkpt>
      <trkpt lat="45.96314" lon="3.53028">
        <ele>460.2722</ele>
        <time>2011-10-08T13:22:41Z</time>
      </trkpt>
      <trkpt lat="45.96332" lon="3.53024">
        <ele>462.10117</ele>
        <time>2011-10-08T13:22:29Z</time>
      </trkpt>
      <trkpt lat="45.9635" lon="3.53015">
        <ele>463.0186</ele>
        <time>2011-10-08T13:22:19Z</time>
      </trkpt>
      <trkpt lat="45.96369" lon="3.53022">
        <ele>466.00696</ele>
        <time>2011-10-08T13:21:22Z</time>
      </trkpt>
      <trkpt lat="45.96385" lon="3.53037">
        <ele>466.52087</ele>
        <time>2011-10-08T13:21:07Z</time>
      </trkpt>
      <trkpt lat="45.96382" lon="3.53062">
        <ele>468.42484</ele>
        <time>2011-10-08T13:20:57Z</time>
      </trkpt>
      <trkpt lat="45.96378" lon="3.53088">
        <ele>470.44403</ele>
        <time>2011-10-08T13:20:48Z</time>
      </trkpt>
      <trkpt lat="45.96373" lon="3.53116">
        <ele>472.27484</ele>
        <time>2011-10-08T13:20:40Z</time>
      </trkpt>
      <trkpt lat="45.96366" lon="3.53142">
        <ele>474.56158</ele>
        <time>2011-10-08T13:20:33Z</time>
      </trkpt>
      <trkpt lat="45.96359" lon="3.53165">
        <ele>474.9948</ele>
        <time>2011-10-08T13:20:27Z</time>
      </trkpt>
      <trkpt lat="45.96345" lon="3.53185">
        <ele>474.94818</ele>
        <time>2011-10-08T13:20:19Z</time>
      </trkpt>
      <trkpt lat="45.9633" lon="3.53202">
        <ele>474.61182</ele>
        <time>2011-10-08T13:20:12Z</time>
      </trkpt>
      <trkpt lat="45.96313" lon="3.53213">
        <ele>473.36417</ele>
        <time>2011-10-08T13:20:07Z</time>
      </trkpt>
      <trkpt lat="45.96293" lon="3.53223">
        <ele>468.52472</ele>
        <time>2011-10-08T13:19:58Z</time>
      </trkpt>
      <trkpt lat="45.96272" lon="3.53243">
        <ele>464.36987</ele>
        <time>2011-10-08T13:19:47Z</time>
      </trkpt>
      <trkpt lat="45.9626" lon="3.53264">
        <ele>461.9374</ele>
        <time>2011-10-08T13:19:40Z</time>
      </trkpt>
      <trkpt lat="45.96251" lon="3.53288">
        <ele>459.1652</ele>
        <time>2011-10-08T13:19:32Z</time>
      </trkpt>
      <trkpt lat="45.96247" lon="3.53313">
        <ele>457.02612</ele>
        <time>2011-10-08T13:19:24Z</time>
      </trkpt>
      <trkpt lat="45.96258" lon="3.53343">
        <ele>456.17874</ele>
        <time>2011-10-08T13:19:15Z</time>
      </trkpt>
      <trkpt lat="45.96275" lon="3.53371">
        <ele>457.10202</ele>
        <time>2011-10-08T13:18:58Z</time>
      </trkpt>
      <trkpt lat="45.96287" lon="3.53404">
        <ele>458.10773</ele>
        <time>2011-10-08T13:18:44Z</time>
      </trkpt>
      <trkpt lat="45.96307" lon="3.53416">
        <ele>459.43463</ele>
        <time>2011-10-08T13:18:35Z</time>
      </trkpt>
      <trkpt lat="45.96328" lon="3.53416">
        <ele>462.53415</ele>
        <time>2011-10-08T13:18:31Z</time>
      </trkpt>
      <trkpt lat="45.96346" lon="3.5341">
        <ele>466.2661</ele>
        <time>2011-10-08T13:18:28Z</time>
      </trkpt>
      <trkpt lat="45.96366" lon="3.53395">
        <ele>470.5823</ele>
        <time>2011-10-08T13:18:23Z</time>
      </trkpt>
      <trkpt lat="45.96374" lon="3.53367">
        <ele>472.6587</ele>
        <time>2011-10-08T13:18:16Z</time>
      </trkpt>
      <trkpt lat="45.96381" lon="3.53343">
        <ele>474.33066</ele>
        <time>2011-10-08T13:18:10Z</time>
      </trkpt>
      <trkpt lat="45.96389" lon="3.53318">
        <ele>475.85788</ele>
        <time>2011-10-08T13:18:04Z</time>
      </trkpt>
      <trkpt lat="45.96405" lon="3.53298">
        <ele>478.28177</ele>
        <time>2011-10-08T13:17:59Z</time>
      </trkpt>
      <trkpt lat="45.96422" lon="3.53286">
        <ele>479.18732</ele>
        <time>2011-10-08T13:17:54Z</time>
      </trkpt>
      <trkpt lat="45.9644" lon="3.53279">
        <ele>480.05252</ele>
        <time>2011-10-08T13:17:48Z</time>
      </trkpt>
      <trkpt lat="45.9646" lon="3.53279">
        <ele>481.69974</ele>
        <time>2011-10-08T13:17:42Z</time>
      </trkpt>
      <trkpt lat="45.96479" lon="3.53283">
        <ele>482.77115</ele>
        <time>2011-10-08T13:17:36Z</time>
      </trkpt>
      <trkpt lat="45.96498" lon="3.53277">
        <ele>484.96243</ele>
        <time>2011-10-08T13:17:30Z</time>
      </trkpt>
      <trkpt lat="45.96514" lon="3.5326">
        <ele>493.24844</ele>
        <time>2011-10-08T13:17:24Z</time>
      </trkpt>
      <trkpt lat="45.96526" lon="3.53236">
        <ele>510.14157</ele>
        <time>2011-10-08T13:17:19Z</time>
      </trkpt>
      <trkpt lat="45.9654" lon="3.53219">
        <ele>526.49677</ele>
        <time>2011-10-08T13:17:12Z</time>
      </trkpt>
      <trkpt lat="45.9656" lon="3.53219">
        <ele>535.53467</ele>
        <time>2011-10-08T13:17:06Z</time>
      </trkpt>
      <trkpt lat="45.96578" lon="3.5323">
        <ele>548.5781</ele>
        <time>2011-10-08T13:17:01Z</time>
      </trkpt>
      <trkpt lat="45.96588" lon="3.53251">
        <ele>554.40497</ele>
        <time>2011-10-08T13:15:57Z</time>
      </trkpt>
      <trkpt lat="45.9659" lon="3.53281">
        <ele>555.3732</ele>
        <time>2011-10-08T13:15:52Z</time>
      </trkpt>
      <trkpt lat="45.96593" lon="3.53307">
        <ele>555.88464</ele>
        <time>2011-10-08T13:15:49Z</time>
      </trkpt>
      <trkpt lat="45.96596" lon="3.53339">
        <ele>556.31915</ele>
        <time>2011-10-08T13:15:46Z</time>
      </trkpt>
      <trkpt lat="45.96604" lon="3.53369">
        <ele>556.7565</ele>
        <time>2011-10-08T13:15:43Z</time>
      </trkpt>
      <trkpt lat="45.96613" lon="3.53397">
        <ele>557.79315</ele>
        <time>2011-10-08T13:15:40Z</time>
      </trkpt>
      <trkpt lat="45.96624" lon="3.53421">
        <ele>559.9171</ele>
        <time>2011-10-08T13:15:37Z</time>
      </trkpt>
      <trkpt lat="45.9663" lon="3.53446">
        <ele>561.43317</ele>
        <time>2011-10-08T13:15:34Z</time>
      </trkpt>
      <trkpt lat="45.96627" lon="3.53474">
        <ele>562.28595</ele>
        <time>2011-10-08T13:15:31Z</time>
      </trkpt>
      <trkpt lat="45.96621" lon="3.53504">
        <ele>562.11365</ele>
        <time>2011-10-08T13:15:27Z</time>
      </trkpt>
      <trkpt lat="45.96614" lon="3.53534">
        <ele>562.6386</ele>
        <time>2011-10-08T13:15:21Z</time>
      </trkpt>
      <trkpt lat="45.96619" lon="3.53562">
        <ele>564.3577</ele>
        <time>2011-10-08T13:15:16Z</time>
      </trkpt>
      <trkpt lat="45.96628" lon="3.53586">
        <ele>565.5873</ele>
        <time>2011-10-08T13:15:12Z</time>
      </trkpt>
      <trkpt lat="45.96642" lon="3.53605">
        <ele>565.4858</ele>
        <time>2011-10-08T13:15:08Z</time>
      </trkpt>
      <trkpt lat="45.96659" lon="3.53627">
        <ele>564.48114</ele>
        <time>2011-10-08T13:15:02Z</time>
      </trkpt>
      <trkpt lat="45.96655" lon="3.53652">
        <ele>563.6935</ele>
        <time>2011-10-08T13:14:58Z</time>
      </trkpt>
      <trkpt lat="45.96651" lon="3.5368">
        <ele>564.05115</ele>
        <time>2011-10-08T13:14:55Z</time>
      </trkpt>
      <trkpt lat="45.96644" lon="3.53713">
        <ele>564.71387</ele>
        <time>2011-10-08T13:14:52Z</time>
      </trkpt>
      <trkpt lat="45.96637" lon="3.53749">
        <ele>564.32184</ele>
        <time>2011-10-08T13:14:49Z</time>
      </trkpt>
      <trkpt lat="45.9663" lon="3.53775">
        <ele>563.7944</ele>
        <time>2011-10-08T13:14:47Z</time>
      </trkpt>
      <trkpt lat="45.96625" lon="3.53801">
        <ele>563.9678</ele>
        <time>2011-10-08T13:14:45Z</time>
      </trkpt>
      <trkpt lat="45.9662" lon="3.53826">
        <ele>565.0538</ele>
        <time>2011-10-08T13:14:43Z</time>
      </trkpt>
      <trkpt lat="45.9662" lon="3.53865">
        <ele>567.8683</ele>
        <time>2011-10-08T13:14:40Z</time>
      </trkpt>
      <trkpt lat="45.96622" lon="3.53891">
        <ele>570.5436</ele>
        <time>2011-10-08T13:14:38Z</time>
      </trkpt>
      <trkpt lat="45.96626" lon="3.53916">
        <ele>573.74414</ele>
        <time>2011-10-08T13:14:36Z</time>
      </trkpt>
      <trkpt lat="45.96627" lon="3.53953">
        <ele>577.68976</ele>
        <time>2011-10-08T13:14:33Z</time>
      </trkpt>
      <trkpt lat="45.96623" lon="3.53979">
        <ele>578.4022</ele>
        <time>2011-10-08T13:14:29Z</time>
      </trkpt>
      <trkpt lat="45.96619" lon="3.54007">
        <ele>579.3616</ele>
        <time>2011-10-08T13:14:24Z</time>
      </trkpt>
      <trkpt lat="45.96616" lon="3.54034">
        <ele>579.85706</ele>
        <time>2011-10-08T13:14:21Z</time>
      </trkpt>
      <trkpt lat="45.96611" lon="3.54064">
        <ele>580.3383</ele>
        <time>2011-10-08T13:14:17Z</time>
      </trkpt>
      <trkpt lat="45.96605" lon="3.5409">
        <ele>580.648</ele>
        <time>2011-10-08T13:14:12Z</time>
      </trkpt>
      <trkpt lat="45.96597" lon="3.54116">
        <ele>581.3603</ele>
        <time>2011-10-08T13:14:07Z</time>
      </trkpt>
      <trkpt lat="45.96593" lon="3.54146">
        <ele>582.1849</ele>
        <time>2011-10-08T13:14:02Z</time>
      </trkpt>
      <trkpt lat="45.96592" lon="3.54176">
        <ele>582.5844</ele>
        <time>2011-10-08T13:13:58Z</time>
      </trkpt>
      <trkpt lat="45.96593" lon="3.54208">
        <ele>583.06915</ele>
        <time>2011-10-08T13:13:54Z</time>
      </trkpt>
      <trkpt lat="45.96593" lon="3.54243">
        <ele>583.21857</ele>
        <time>2011-10-08T13:13:50Z</time>
      </trkpt>
      <trkpt lat="45.96595" lon="3.5427">
        <ele>583.5181</ele>
        <time>2011-10-08T13:13:47Z</time>
      </trkpt>
      <trkpt lat="45.96597" lon="3.54298">
        <ele>583.19116</ele>
        <time>2011-10-08T13:13:44Z</time>
      </trkpt>
      <trkpt lat="45.96599" lon="3.54326">
        <ele>583.4531</ele>
        <time>2011-10-08T13:13:41Z</time>
      </trkpt>
      <trkpt lat="45.966" lon="3.54354">
        <ele>584.07404</ele>
        <time>2011-10-08T13:13:38Z</time>
      </trkpt>
      <trkpt lat="45.96599" lon="3.54382">
        <ele>585.2126</ele>
        <time>2011-10-08T13:13:35Z</time>
      </trkpt>
      <trkpt lat="45.966" lon="3.5441">
        <ele>586.5409</ele>
        <time>2011-10-08T13:13:32Z</time>
      </trkpt>
      <trkpt lat="45.96613" lon="3.5444">
        <ele>588.16626</ele>
        <time>2011-10-08T13:13:28Z</time>
      </trkpt>
      <trkpt lat="45.96625" lon="3.54464">
        <ele>588.9823</ele>
        <time>2011-10-08T13:13:24Z</time>
      </trkpt>
      <trkpt lat="45.96638" lon="3.54487">
        <ele>588.9005</ele>
        <time>2011-10-08T13:13:18Z</time>
      </trkpt>
      <trkpt lat="45.96641" lon="3.54517">
        <ele>588.2546</ele>
        <time>2011-10-08T13:13:11Z</time>
      </trkpt>
      <trkpt lat="45.96639" lon="3.54547">
        <ele>588.01917</ele>
        <time>2011-10-08T13:13:06Z</time>
      </trkpt>
      <trkpt lat="45.96638" lon="3.54575">
        <ele>588.06067</ele>
        <time>2011-10-08T13:13:02Z</time>
      </trkpt>
      <trkpt lat="45.96638" lon="3.54609">
        <ele>589.1808</ele>
        <time>2011-10-08T13:12:59Z</time>
      </trkpt>
      <trkpt lat="45.96635" lon="3.54635">
        <ele>590.0992</ele>
        <time>2011-10-08T13:12:57Z</time>
      </trkpt>
      <trkpt lat="45.96629" lon="3.54663">
        <ele>591.73193</ele>
        <time>2011-10-08T13:12:55Z</time>
      </trkpt>
      <trkpt lat="45.96624" lon="3.54689">
        <ele>593.5234</ele>
        <time>2011-10-08T13:12:53Z</time>
      </trkpt>
      <trkpt lat="45.96621" lon="3.54715">
        <ele>595.1527</ele>
        <time>2011-10-08T13:12:51Z</time>
      </trkpt>
      <trkpt lat="45.96622" lon="3.54749">
        <ele>596.9916</ele>
        <time>2011-10-08T13:12:48Z</time>
      </trkpt>
      <trkpt lat="45.96628" lon="3.54781">
        <ele>598.94305</ele>
        <time>2011-10-08T13:12:45Z</time>
      </trkpt>
      <trkpt lat="45.96642" lon="3.54809">
        <ele>599.7168</ele>
        <time>2011-10-08T13:12:42Z</time>
      </trkpt>
      <trkpt lat="45.96656" lon="3.54833">
        <ele>599.32874</ele>
        <time>2011-10-08T13:12:39Z</time>
      </trkpt>
      <trkpt lat="45.96669" lon="3.54854">
        <ele>598.4088</ele>
        <time>2011-10-08T13:12:36Z</time>
      </trkpt>
      <trkpt lat="45.96673" lon="3.5488">
        <ele>597.1316</ele>
        <time>2011-10-08T13:12:32Z</time>
      </trkpt>
      <trkpt lat="45.9668" lon="3.5491">
        <ele>595.1184</ele>
        <time>2011-10-08T13:12:27Z</time>
      </trkpt>
      <trkpt lat="45.96691" lon="3.54931">
        <ele>594.4455</ele>
        <time>2011-10-08T13:12:22Z</time>
      </trkpt>
      <trkpt lat="45.96701" lon="3.54955">
        <ele>594.04504</ele>
        <time>2011-10-08T13:12:16Z</time>
      </trkpt>
      <trkpt lat="45.96697" lon="3.54981">
        <ele>594.33746</ele>
        <time>2011-10-08T13:12:09Z</time>
      </trkpt>
      <trkpt lat="45.96688" lon="3.55006">
        <ele>595.89594</ele>
        <time>2011-10-08T13:12:03Z</time>
      </trkpt>
      <trkpt lat="45.96686" lon="3.55032">
        <ele>598.28845</ele>
        <time>2011-10-08T13:11:59Z</time>
      </trkpt>
      <trkpt lat="45.96686" lon="3.55062">
        <ele>600.7512</ele>
        <time>2011-10-08T13:11:55Z</time>
      </trkpt>
      <trkpt lat="45.96691" lon="3.55088">
        <ele>601.0039</ele>
        <time>2011-10-08T13:11:51Z</time>
      </trkpt>
      <trkpt lat="45.96699" lon="3.55118">
        <ele>601.0123</ele>
        <time>2011-10-08T13:11:47Z</time>
      </trkpt>
      <trkpt lat="45.96702" lon="3.55144">
        <ele>601.0292</ele>
        <time>2011-10-08T13:11:44Z</time>
      </trkpt>
      <trkpt lat="45.96702" lon="3.55176">
        <ele>601.09216</ele>
        <time>2011-10-08T13:11:40Z</time>
      </trkpt>
      <trkpt lat="45.96698" lon="3.55204">
        <ele>601.29126</ele>
        <time>2011-10-08T13:11:36Z</time>
      </trkpt>
      <trkpt lat="45.96695" lon="3.5523">
        <ele>601.9206</ele>
        <time>2011-10-08T13:11:32Z</time>
      </trkpt>
      <trkpt lat="45.96683" lon="3.55251">
        <ele>603.5762</ele>
        <time>2011-10-08T13:11:28Z</time>
      </trkpt>
      <trkpt lat="45.96668" lon="3.55273">
        <ele>604.62494</ele>
        <time>2011-10-08T13:11:25Z</time>
      </trkpt>
      <trkpt lat="45.96654" lon="3.55294">
        <ele>605.148</ele>
        <time>2011-10-08T13:11:22Z</time>
      </trkpt>
      <trkpt lat="45.96639" lon="3.5532">
        <ele>605.3508</ele>
        <time>2011-10-08T13:11:19Z</time>
      </trkpt>
      <trkpt lat="45.96626" lon="3.55343">
        <ele>605.8316</ele>
        <time>2011-10-08T13:11:16Z</time>
      </trkpt>
      <trkpt lat="45.96615" lon="3.55367">
        <ele>606.1935</ele>
        <time>2011-10-08T13:11:13Z</time>
      </trkpt>
      <trkpt lat="45.96605" lon="3.55388">
        <ele>606.4586</ele>
        <time>2011-10-08T13:11:10Z</time>
      </trkpt>
      <trkpt lat="45.96594" lon="3.55412">
        <ele>606.6717</ele>
        <time>2011-10-08T13:11:06Z</time>
      </trkpt>
      <trkpt lat="45.96582" lon="3.5544">
        <ele>606.3942</ele>
        <time>2011-10-08T13:11:01Z</time>
      </trkpt>
      <trkpt lat="45.9658" lon="3.55468">
        <ele>607.6613</ele>
        <time>2011-10-08T13:10:56Z</time>
      </trkpt>
      <trkpt lat="45.9658" lon="3.55498">
        <ele>610.50684</ele>
        <time>2011-10-08T13:10:51Z</time>
      </trkpt>
      <trkpt lat="45.96581" lon="3.55526">
        <ele>612.86835</ele>
        <time>2011-10-08T13:10:46Z</time>
      </trkpt>
      <trkpt lat="45.96585" lon="3.55554">
        <ele>613.4988</ele>
        <time>2011-10-08T13:10:41Z</time>
      </trkpt>
      <trkpt lat="45.96592" lon="3.55582">
        <ele>614.3241</ele>
        <time>2011-10-08T13:10:36Z</time>
      </trkpt>
      <trkpt lat="45.96597" lon="3.55607">
        <ele>615.0325</ele>
        <time>2011-10-08T13:10:31Z</time>
      </trkpt>
      <trkpt lat="45.96598" lon="3.55635">
        <ele>615.18225</ele>
        <time>2011-10-08T13:10:25Z</time>
      </trkpt>
      <trkpt lat="45.96611" lon="3.55659">
        <ele>616.3655</ele>
        <time>2011-10-08T13:10:18Z</time>
      </trkpt>
      <trkpt lat="45.96626" lon="3.55678">
        <ele>617.9453</ele>
        <time>2011-10-08T13:10:14Z</time>
      </trkpt>
      <trkpt lat="45.96639" lon="3.55697">
        <ele>619.8333</ele>
        <time>2011-10-08T13:10:11Z</time>
      </trkpt>
      <trkpt lat="45.96655" lon="3.55721">
        <ele>622.68304</ele>
        <time>2011-10-08T13:10:07Z</time>
      </trkpt>
      <trkpt lat="45.96667" lon="3.55747">
        <ele>625.1665</ele>
        <time>2011-10-08T13:10:02Z</time>
      </trkpt>
      <trkpt lat="45.96681" lon="3.5577">
        <ele>628.5823</ele>
        <time>2011-10-08T13:09:57Z</time>
      </trkpt>
      <trkpt lat="45.96694" lon="3.5579">
        <ele>630.3094</ele>
        <time>2011-10-08T13:09:53Z</time>
      </trkpt>
      <trkpt lat="45.9671" lon="3.55807">
        <ele>630.7333</ele>
        <time>2011-10-08T13:09:50Z</time>
      </trkpt>
      <trkpt lat="45.96729" lon="3.55818">
        <ele>630.9472</ele>
        <time>2011-10-08T13:09:46Z</time>
      </trkpt>
      <trkpt lat="45.96748" lon="3.55813">
        <ele>630.7775</ele>
        <time>2011-10-08T13:09:41Z</time>
      </trkpt>
      <trkpt lat="45.96767" lon="3.55805">
        <ele>628.8147</ele>
        <time>2011-10-08T13:09:32Z</time>
      </trkpt>
      <trkpt lat="45.96785" lon="3.55798">
        <ele>624.6876</ele>
        <time>2011-10-08T13:09:20Z</time>
      </trkpt>
      <trkpt lat="45.96803" lon="3.55792">
        <ele>617.69885</ele>
        <time>2011-10-08T13:09:01Z</time>
      </trkpt>
      <trkpt lat="45.96821" lon="3.558">
        <ele>612.9999</ele>
        <time>2011-10-08T13:07:57Z</time>
      </trkpt>
      <trkpt lat="45.9684" lon="3.558">
        <ele>612.822</ele>
        <time>2011-10-08T13:07:32Z</time>
      </trkpt>
      <trkpt lat="45.96852" lon="3.55781">
        <ele>609.77576</ele>
        <time>2011-10-08T13:06:45Z</time>
      </trkpt>
      <trkpt lat="45.9687" lon="3.5577">
        <ele>607.53925</ele>
        <time>2011-10-08T13:06:33Z</time>
      </trkpt>
      <trkpt lat="45.96888" lon="3.55768">
        <ele>605.41095</ele>
        <time>2011-10-08T13:06:24Z</time>
      </trkpt>
      <trkpt lat="45.96907" lon="3.55772">
        <ele>602.5826</ele>
        <time>2011-10-08T13:06:11Z</time>
      </trkpt>
      <trkpt lat="45.96922" lon="3.55788">
        <ele>600.65436</ele>
        <time>2011-10-08T13:06:02Z</time>
      </trkpt>
      <trkpt lat="45.9694" lon="3.5579">
        <ele>598.40936</ele>
        <time>2011-10-08T13:05:52Z</time>
      </trkpt>
      <trkpt lat="45.96953" lon="3.5577">
        <ele>594.80865</ele>
        <time>2011-10-08T13:05:31Z</time>
      </trkpt>
      <trkpt lat="45.96964" lon="3.55749">
        <ele>593</ele>
        <time>2011-10-08T13:05:13Z</time>
      </trkpt>
      <trkpt lat="45.96977" lon="3.5573">
        <ele>593</ele>
        <time>2011-10-08T13:04:59Z</time>
      </trkpt>
      <trkpt lat="45.96991" lon="3.55747">
        <ele>592.9996</ele>
        <time>2011-10-08T13:04:41Z</time>
      </trkpt>
      <trkpt lat="45.96989" lon="3.55772">
        <ele>591.17487</ele>
        <time>2011-10-08T13:04:05Z</time>
      </trkpt>
      <trkpt lat="45.96997" lon="3.55796">
        <ele>582.0842</ele>
        <time>2011-10-08T13:03:31Z</time>
      </trkpt>
      <trkpt lat="45.97003" lon="3.55822">
        <ele>576.2169</ele>
        <time>2011-10-08T13:03:03Z</time>
      </trkpt>
      <trkpt lat="45.97013" lon="3.55843">
        <ele>573.00244</ele>
        <time>2011-10-08T13:02:13Z</time>
      </trkpt>
      <trkpt lat="45.97032" lon="3.55848">
        <ele>575.0695</ele>
        <time>2011-10-08T13:01:32Z</time>
      </trkpt>
      <trkpt lat="45.97048" lon="3.55835">
        <ele>579.4237</ele>
        <time>2011-10-08T13:01:06Z</time>
      </trkpt>
      <trkpt lat="45.97065" lon="3.55824">
        <ele>584.3298</ele>
        <time>2011-10-08T13:00:35Z</time>
      </trkpt>
      <trkpt lat="45.97083" lon="3.55828">
        <ele>586</ele>
        <time>2011-10-08T13:00:16Z</time>
      </trkpt>
      <trkpt lat="45.97101" lon="3.55828">
        <ele>586</ele>
        <time>2011-10-08T13:00:03Z</time>
      </trkpt>
      <trkpt lat="45.9712" lon="3.55841">
        <ele>586</ele>
        <time>2011-10-08T12:59:55Z</time>
      </trkpt>
      <trkpt lat="45.97127" lon="3.55867">
        <ele>586.0306</ele>
        <time>2011-10-08T12:58:39Z</time>
      </trkpt>
      <trkpt lat="45.97136" lon="3.55893">
        <ele>586.72455</ele>
        <time>2011-10-08T12:58:28Z</time>
      </trkpt>
      <trkpt lat="45.97143" lon="3.55925">
        <ele>586.74567</ele>
        <time>2011-10-08T12:58:20Z</time>
      </trkpt>
      <trkpt lat="45.97147" lon="3.55963">
        <ele>584.9831</ele>
        <time>2011-10-08T12:58:11Z</time>
      </trkpt>
      <trkpt lat="45.97146" lon="3.55994">
        <ele>583.0075</ele>
        <time>2011-10-08T12:57:52Z</time>
      </trkpt>
      <trkpt lat="45.97159" lon="3.56017">
        <ele>584.0075</ele>
        <time>2011-10-08T12:57:29Z</time>
      </trkpt>
      <trkpt lat="45.97179" lon="3.56021">
        <ele>584.0751</ele>
        <time>2011-10-08T12:57:21Z</time>
      </trkpt>
      <trkpt lat="45.97206" lon="3.56024">
        <ele>584.4219</ele>
        <time>2011-10-08T12:57:15Z</time>
      </trkpt>
      <trkpt lat="45.97228" lon="3.56019">
        <ele>582.9431</ele>
        <time>2011-10-08T12:56:16Z</time>
      </trkpt>
      <trkpt lat="45.97248" lon="3.56013">
        <ele>581.8281</ele>
        <time>2011-10-08T12:56:13Z</time>
      </trkpt>
      <trkpt lat="45.97268" lon="3.56009">
        <ele>581.00024</ele>
        <time>2011-10-08T12:56:03Z</time>
      </trkpt>
      <trkpt lat="45.97284" lon="3.55994">
        <ele>581.23694</ele>
        <time>2011-10-08T12:55:39Z</time>
      </trkpt>
      <trkpt lat="45.97302" lon="3.56">
        <ele>581.9979</ele>
        <time>2011-10-08T12:55:33Z</time>
      </trkpt>
      <trkpt lat="45.97321" lon="3.56009">
        <ele>581.98846</ele>
        <time>2011-10-08T12:55:27Z</time>
      </trkpt>
      <trkpt lat="45.97342" lon="3.56017">
        <ele>581.93524</ele>
        <time>2011-10-08T12:55:21Z</time>
      </trkpt>
      <trkpt lat="45.97362" lon="3.56017">
        <ele>581.79535</ele>
        <time>2011-10-08T12:55:17Z</time>
      </trkpt>
      <trkpt lat="45.97377" lon="3.55998">
        <ele>580.8502</ele>
        <time>2011-10-08T12:55:11Z</time>
      </trkpt>
      <trkpt lat="45.97385" lon="3.55974">
        <ele>579.8374</ele>
        <time>2011-10-08T12:55:03Z</time>
      </trkpt>
      <trkpt lat="45.97388" lon="3.55948">
        <ele>578.7094</ele>
        <time>2011-10-08T12:54:55Z</time>
      </trkpt>
      <trkpt lat="45.97402" lon="3.55927">
        <ele>576.875</ele>
        <time>2011-10-08T12:54:47Z</time>
      </trkpt>
      <trkpt lat="45.9742" lon="3.55923">
        <ele>575.5559</ele>
        <time>2011-10-08T12:52:02Z</time>
      </trkpt>
      <trkpt lat="45.97439" lon="3.55923">
        <ele>574.59644</ele>
        <time>2011-10-08T12:51:58Z</time>
      </trkpt>
      <trkpt lat="45.97461" lon="3.55923">
        <ele>573.2994</ele>
        <time>2011-10-08T12:51:53Z</time>
      </trkpt>
      <trkpt lat="45.97482" lon="3.55916">
        <ele>570.6485</ele>
        <time>2011-10-08T12:51:48Z</time>
      </trkpt>
      <trkpt lat="45.97499" lon="3.55908">
        <ele>569.85205</ele>
        <time>2011-10-08T12:51:43Z</time>
      </trkpt>
      <trkpt lat="45.97521" lon="3.55901">
        <ele>569.37665</ele>
        <time>2011-10-08T12:51:38Z</time>
      </trkpt>
      <trkpt lat="45.9754" lon="3.55895">
        <ele>568.5442</ele>
        <time>2011-10-08T12:51:31Z</time>
      </trkpt>
      <trkpt lat="45.97559" lon="3.55891">
        <ele>567.66125</ele>
        <time>2011-10-08T12:51:23Z</time>
      </trkpt>
      <trkpt lat="45.9758" lon="3.55884">
        <ele>566.8327</ele>
        <time>2011-10-08T12:51:16Z</time>
      </trkpt>
      <trkpt lat="45.97596" lon="3.55869">
        <ele>565.66254</ele>
        <time>2011-10-08T12:51:08Z</time>
      </trkpt>
      <trkpt lat="45.97613" lon="3.55852">
        <ele>564.10394</ele>
        <time>2011-10-08T12:51:02Z</time>
      </trkpt>
      <trkpt lat="45.97632" lon="3.55845">
        <ele>562.0017</ele>
        <time>2011-10-08T12:50:57Z</time>
      </trkpt>
      <trkpt lat="45.97653" lon="3.5585">
        <ele>560.4968</ele>
        <time>2011-10-08T12:50:52Z</time>
      </trkpt>
      <trkpt lat="45.97672" lon="3.5585">
        <ele>559.7431</ele>
        <time>2011-10-08T12:50:48Z</time>
      </trkpt>
      <trkpt lat="45.97692" lon="3.55854">
        <ele>559.18805</ele>
        <time>2011-10-08T12:50:44Z</time>
      </trkpt>
      <trkpt lat="45.9771" lon="3.55869">
        <ele>558.2116</ele>
        <time>2011-10-08T12:50:40Z</time>
      </trkpt>
      <trkpt lat="45.97725" lon="3.55891">
        <ele>556.45557</ele>
        <time>2011-10-08T12:50:35Z</time>
      </trkpt>
      <trkpt lat="45.97741" lon="3.5591">
        <ele>553.9856</ele>
        <time>2011-10-08T12:50:30Z</time>
      </trkpt>
      <trkpt lat="45.9776" lon="3.55923">
        <ele>550.783</ele>
        <time>2011-10-08T12:50:25Z</time>
      </trkpt>
      <trkpt lat="45.97782" lon="3.55929">
        <ele>549.78076</ele>
        <time>2011-10-08T12:50:19Z</time>
      </trkpt>
      <trkpt lat="45.97801" lon="3.55936">
        <ele>548.691</ele>
        <time>2011-10-08T12:50:12Z</time>
      </trkpt>
      <trkpt lat="45.9782" lon="3.55944">
        <ele>547.4626</ele>
        <time>2011-10-08T12:50:05Z</time>
      </trkpt>
      <trkpt lat="45.97841" lon="3.55951">
        <ele>546.13446</ele>
        <time>2011-10-08T12:49:58Z</time>
      </trkpt>
      <trkpt lat="45.97859" lon="3.55955">
        <ele>545.1345</ele>
        <time>2011-10-08T12:49:51Z</time>
      </trkpt>
      <trkpt lat="45.97877" lon="3.55959">
        <ele>543.84674</ele>
        <time>2011-10-08T12:49:43Z</time>
      </trkpt>
      <trkpt lat="45.97896" lon="3.55963">
        <ele>542.7363</ele>
        <time>2011-10-08T12:49:34Z</time>
      </trkpt>
      <trkpt lat="45.97916" lon="3.55966">
        <ele>541.5313</ele>
        <time>2011-10-08T12:49:24Z</time>
      </trkpt>
      <trkpt lat="45.97934" lon="3.5597">
        <ele>540.5322</ele>
        <time>2011-10-08T12:49:16Z</time>
      </trkpt>
      <trkpt lat="45.97952" lon="3.5597">
        <ele>539.54156</ele>
        <time>2011-10-08T12:49:08Z</time>
      </trkpt>
      <trkpt lat="45.97971" lon="3.55974">
        <ele>538.6351</ele>
        <time>2011-10-08T12:49:00Z</time>
      </trkpt>
      <trkpt lat="45.97991" lon="3.55983">
        <ele>537.35364</ele>
        <time>2011-10-08T12:48:51Z</time>
      </trkpt>
      <trkpt lat="45.98009" lon="3.55994">
        <ele>536.1625</ele>
        <time>2011-10-08T12:48:43Z</time>
      </trkpt>
      <trkpt lat="45.98025" lon="3.56006">
        <ele>535.3445</ele>
        <time>2011-10-08T12:48:36Z</time>
      </trkpt>
      <trkpt lat="45.98041" lon="3.56021">
        <ele>533.5756</ele>
        <time>2011-10-08T12:48:25Z</time>
      </trkpt>
      <trkpt lat="45.98058" lon="3.56032">
        <ele>531.56213</ele>
        <time>2011-10-08T12:48:16Z</time>
      </trkpt>
      <trkpt lat="45.98078" lon="3.56043">
        <ele>530.4881</ele>
        <time>2011-10-08T12:48:11Z</time>
      </trkpt>
      <trkpt lat="45.98096" lon="3.56047">
        <ele>529.32574</ele>
        <time>2011-10-08T12:48:04Z</time>
      </trkpt>
      <trkpt lat="45.98115" lon="3.56049">
        <ele>527.8835</ele>
        <time>2011-10-08T12:47:56Z</time>
      </trkpt>
      <trkpt lat="45.98135" lon="3.56056">
        <ele>527.12726</ele>
        <time>2011-10-08T12:47:49Z</time>
      </trkpt>
      <trkpt lat="45.98153" lon="3.56058">
        <ele>526.0807</ele>
        <time>2011-10-08T12:47:42Z</time>
      </trkpt>
      <trkpt lat="45.98172" lon="3.56058">
        <ele>524.7315</ele>
        <time>2011-10-08T12:47:35Z</time>
      </trkpt>
      <trkpt lat="45.9819" lon="3.56054">
        <ele>523.8248</ele>
        <time>2011-10-08T12:47:29Z</time>
      </trkpt>
      <trkpt lat="45.98209" lon="3.56056">
        <ele>522.5835</ele>
        <time>2011-10-08T12:47:21Z</time>
      </trkpt>
      <trkpt lat="45.98228" lon="3.56056">
        <ele>520.6673</ele>
        <time>2011-10-08T12:47:12Z</time>
      </trkpt>
      <trkpt lat="45.98246" lon="3.56051">
        <ele>518.63885</ele>
        <time>2011-10-08T12:47:02Z</time>
      </trkpt>
      <trkpt lat="45.98266" lon="3.56049">
        <ele>517.55316</ele>
        <time>2011-10-08T12:46:54Z</time>
      </trkpt>
      <trkpt lat="45.98286" lon="3.56047">
        <ele>516.8598</ele>
        <time>2011-10-08T12:46:48Z</time>
      </trkpt>
      <trkpt lat="45.98305" lon="3.56045">
        <ele>515.93286</ele>
        <time>2011-10-08T12:46:40Z</time>
      </trkpt>
      <trkpt lat="45.98324" lon="3.56045">
        <ele>514.74335</ele>
        <time>2011-10-08T12:46:29Z</time>
      </trkpt>
      <trkpt lat="45.98341" lon="3.5603">
        <ele>510.89145</ele>
        <time>2011-10-08T12:46:09Z</time>
      </trkpt>
      <trkpt lat="45.98349" lon="3.56006">
        <ele>509.15936</ele>
        <time>2011-10-08T12:45:53Z</time>
      </trkpt>
      <trkpt lat="45.98358" lon="3.55983">
        <ele>506.3141</ele>
        <time>2011-10-08T12:45:33Z</time>
      </trkpt>
      <trkpt lat="45.98371" lon="3.55963">
        <ele>503.5907</ele>
        <time>2011-10-08T12:45:18Z</time>
      </trkpt>
      <trkpt lat="45.98388" lon="3.55953">
        <ele>499.4375</ele>
        <time>2011-10-08T12:43:31Z</time>
      </trkpt>
      <trkpt lat="45.98406" lon="3.55957">
        <ele>498.99924</ele>
        <time>2011-10-08T12:43:17Z</time>
      </trkpt>
      <trkpt lat="45.98424" lon="3.55955">
        <ele>498.99683</ele>
        <time>2011-10-08T12:43:12Z</time>
      </trkpt>
      <trkpt lat="45.98442" lon="3.55951">
        <ele>498.57736</ele>
        <time>2011-10-08T12:42:55Z</time>
      </trkpt>
      <trkpt lat="45.9846" lon="3.5594">
        <ele>495.91507</ele>
        <time>2011-10-08T12:42:37Z</time>
      </trkpt>
      <trkpt lat="45.98477" lon="3.55931">
        <ele>491.8802</ele>
        <time>2011-10-08T12:42:18Z</time>
      </trkpt>
      <trkpt lat="45.98492" lon="3.55916">
        <ele>487.46808</ele>
        <time>2011-10-08T12:42:00Z</time>
      </trkpt>
      <trkpt lat="45.98509" lon="3.55908">
        <ele>485.1806</ele>
        <time>2011-10-08T12:41:52Z</time>
      </trkpt>
      <trkpt lat="45.98524" lon="3.55888">
        <ele>480.99774</ele>
        <time>2011-10-08T12:41:38Z</time>
      </trkpt>
      <trkpt lat="45.98542" lon="3.5588">
        <ele>477.6557</ele>
        <time>2011-10-08T12:41:23Z</time>
      </trkpt>
      <trkpt lat="45.9856" lon="3.55878">
        <ele>476.11932</ele>
        <time>2011-10-08T12:41:11Z</time>
      </trkpt>
      <trkpt lat="45.98579" lon="3.55882">
        <ele>474.59293</ele>
        <time>2011-10-08T12:41:02Z</time>
      </trkpt>
      <trkpt lat="45.986" lon="3.55882">
        <ele>472.6313</ele>
        <time>2011-10-08T12:40:51Z</time>
      </trkpt>
      <trkpt lat="45.98618" lon="3.55882">
        <ele>470.76117</ele>
        <time>2011-10-08T12:40:40Z</time>
      </trkpt>
      <trkpt lat="45.98637" lon="3.55886">
        <ele>469.39227</ele>
        <time>2011-10-08T12:40:32Z</time>
      </trkpt>
      <trkpt lat="45.98657" lon="3.55888">
        <ele>467.47684</ele>
        <time>2011-10-08T12:40:24Z</time>
      </trkpt>
      <trkpt lat="45.98675" lon="3.55888">
        <ele>465.9882</ele>
        <time>2011-10-08T12:40:16Z</time>
      </trkpt>
      <trkpt lat="45.98695" lon="3.55888">
        <ele>464.4197</ele>
        <time>2011-10-08T12:40:05Z</time>
      </trkpt>
      <trkpt lat="45.98714" lon="3.55886">
        <ele>463.9</ele>
        <time>2011-10-08T12:39:59Z</time>
      </trkpt>
      <trkpt lat="45.98731" lon="3.55873">
        <ele>463.00314</ele>
        <time>2011-10-08T12:39:47Z</time>
      </trkpt>
      <trkpt lat="45.98744" lon="3.55852">
        <ele>463.23587</ele>
        <time>2011-10-08T12:39:32Z</time>
      </trkpt>
      <trkpt lat="45.98761" lon="3.55841">
        <ele>463.99188</ele>
        <time>2011-10-08T12:39:26Z</time>
      </trkpt>
      <trkpt lat="45.98778" lon="3.55822">
        <ele>463.856</ele>
        <time>2011-10-08T12:39:16Z</time>
      </trkpt>
      <trkpt lat="45.98802" lon="3.55805">
        <ele>461.07242</ele>
        <time>2011-10-08T12:38:54Z</time>
      </trkpt>
      <trkpt lat="45.98808" lon="3.55779">
        <ele>460.06863</ele>
        <time>2011-10-08T12:38:36Z</time>
      </trkpt>
      <trkpt lat="45.98809" lon="3.55747">
        <ele>461.83347</ele>
        <time>2011-10-08T12:38:24Z</time>
      </trkpt>
      <trkpt lat="45.98794" lon="3.5573">
        <ele>464.5122</ele>
        <time>2011-10-08T12:38:19Z</time>
      </trkpt>
      <trkpt lat="45.98775" lon="3.55725">
        <ele>469.66376</ele>
        <time>2011-10-08T12:37:29Z</time>
      </trkpt>
      <trkpt lat="45.98757" lon="3.55706">
        <ele>473.34573</ele>
        <time>2011-10-08T12:37:16Z</time>
      </trkpt>
      <trkpt lat="45.98739" lon="3.55697">
        <ele>474.41214</ele>
        <time>2011-10-08T12:37:13Z</time>
      </trkpt>
      <trkpt lat="45.98717" lon="3.55685">
        <ele>476.01395</ele>
        <time>2011-10-08T12:37:10Z</time>
      </trkpt>
      <trkpt lat="45.98693" lon="3.5568">
        <ele>477.66272</ele>
        <time>2011-10-08T12:37:07Z</time>
      </trkpt>
      <trkpt lat="45.9867" lon="3.55676">
        <ele>479.16348</ele>
        <time>2011-10-08T12:37:04Z</time>
      </trkpt>
      <trkpt lat="45.98647" lon="3.55672">
        <ele>481.7949</ele>
        <time>2011-10-08T12:37:01Z</time>
      </trkpt>
      <trkpt lat="45.98631" lon="3.55657">
        <ele>484.0694</ele>
        <time>2011-10-08T12:36:58Z</time>
      </trkpt>
      <trkpt lat="45.98645" lon="3.55639">
        <ele>488.20694</ele>
        <time>2011-10-08T12:36:54Z</time>
      </trkpt>
      <trkpt lat="45.98667" lon="3.55637">
        <ele>492.08316</ele>
        <time>2011-10-08T12:36:51Z</time>
      </trkpt>
      <trkpt lat="45.98686" lon="3.55624">
        <ele>496.2628</ele>
        <time>2011-10-08T12:36:47Z</time>
      </trkpt>
      <trkpt lat="45.98687" lon="3.55594">
        <ele>498.25256</ele>
        <time>2011-10-08T12:36:44Z</time>
      </trkpt>
      <trkpt lat="45.98693" lon="3.55567">
        <ele>501.3394</ele>
        <time>2011-10-08T12:36:41Z</time>
      </trkpt>
      <trkpt lat="45.98711" lon="3.55551">
        <ele>506.61926</ele>
        <time>2011-10-08T12:36:38Z</time>
      </trkpt>
      <trkpt lat="45.98732" lon="3.55556">
        <ele>514.24567</ele>
        <time>2011-10-08T12:36:35Z</time>
      </trkpt>
      <trkpt lat="45.98757" lon="3.55562">
        <ele>522.2119</ele>
        <time>2011-10-08T12:36:32Z</time>
      </trkpt>
      <trkpt lat="45.98775" lon="3.5556">
        <ele>526.8212</ele>
        <time>2011-10-08T12:36:30Z</time>
      </trkpt>
      <trkpt lat="45.98799" lon="3.55556">
        <ele>529.9044</ele>
        <time>2011-10-08T12:36:28Z</time>
      </trkpt>
      <trkpt lat="45.98821" lon="3.55549">
        <ele>531.1634</ele>
        <time>2011-10-08T12:36:26Z</time>
      </trkpt>
      <trkpt lat="45.98844" lon="3.55541">
        <ele>529.68353</ele>
        <time>2011-10-08T12:36:23Z</time>
      </trkpt>
      <trkpt lat="45.9885" lon="3.55513">
        <ele>527.16034</ele>
        <time>2011-10-08T12:36:19Z</time>
      </trkpt>
      <trkpt lat="45.98845" lon="3.55483">
        <ele>526.45416</ele>
        <time>2011-10-08T12:36:16Z</time>
      </trkpt>
      <trkpt lat="45.98837" lon="3.55453">
        <ele>525.7062</ele>
        <time>2011-10-08T12:36:13Z</time>
      </trkpt>
      <trkpt lat="45.98832" lon="3.55423">
        <ele>524.7109</ele>
        <time>2011-10-08T12:36:10Z</time>
      </trkpt>
      <trkpt lat="45.98827" lon="3.55393">
        <ele>523.7221</ele>
        <time>2011-10-08T12:36:07Z</time>
      </trkpt>
      <trkpt lat="45.98823" lon="3.55363">
        <ele>523.34125</ele>
        <time>2011-10-08T12:36:04Z</time>
      </trkpt>
      <trkpt lat="45.98829" lon="3.55333">
        <ele>523.2883</ele>
        <time>2011-10-08T12:36:00Z</time>
      </trkpt>
      <trkpt lat="45.98845" lon="3.55318">
        <ele>523.8816</ele>
        <time>2011-10-08T12:35:55Z</time>
      </trkpt>
      <trkpt lat="45.98863" lon="3.55313">
        <ele>523.6257</ele>
        <time>2011-10-08T12:35:51Z</time>
      </trkpt>
      <trkpt lat="45.98884" lon="3.55305">
        <ele>523.35626</ele>
        <time>2011-10-08T12:35:44Z</time>
      </trkpt>
      <trkpt lat="45.98899" lon="3.5532">
        <ele>524.1259</ele>
        <time>2011-10-08T12:35:40Z</time>
      </trkpt>
      <trkpt lat="45.98916" lon="3.55337">
        <ele>524.89105</ele>
        <time>2011-10-08T12:35:37Z</time>
      </trkpt>
      <trkpt lat="45.98931" lon="3.55356">
        <ele>525.7789</ele>
        <time>2011-10-08T12:35:34Z</time>
      </trkpt>
      <trkpt lat="45.98945" lon="3.55373">
        <ele>526.0684</ele>
        <time>2011-10-08T12:35:31Z</time>
      </trkpt>
      <trkpt lat="45.98967" lon="3.5538">
        <ele>526.2161</ele>
        <time>2011-10-08T12:35:27Z</time>
      </trkpt>
      <trkpt lat="45.98989" lon="3.55384">
        <ele>526.5123</ele>
        <time>2011-10-08T12:35:24Z</time>
      </trkpt>
      <trkpt lat="45.99008" lon="3.55388">
        <ele>526.5775</ele>
        <time>2011-10-08T12:35:22Z</time>
      </trkpt>
      <trkpt lat="45.99035" lon="3.55388">
        <ele>525.9981</ele>
        <time>2011-10-08T12:35:18Z</time>
      </trkpt>
      <trkpt lat="45.99056" lon="3.55388">
        <ele>525.99194</ele>
        <time>2011-10-08T12:35:13Z</time>
      </trkpt>
      <trkpt lat="45.99078" lon="3.55388">
        <ele>525.9745</ele>
        <time>2011-10-08T12:35:09Z</time>
      </trkpt>
      <trkpt lat="45.99099" lon="3.55382">
        <ele>525.8565</ele>
        <time>2011-10-08T12:35:03Z</time>
      </trkpt>
      <trkpt lat="45.99117" lon="3.55376">
        <ele>525.1938</ele>
        <time>2011-10-08T12:34:57Z</time>
      </trkpt>
      <trkpt lat="45.99137" lon="3.55373">
        <ele>524.684</ele>
        <time>2011-10-08T12:34:51Z</time>
      </trkpt>
      <trkpt lat="45.9916" lon="3.55378">
        <ele>524.00244</ele>
        <time>2011-10-08T12:34:45Z</time>
      </trkpt>
      <trkpt lat="45.99181" lon="3.55376">
        <ele>524.01025</ele>
        <time>2011-10-08T12:34:40Z</time>
      </trkpt>
      <trkpt lat="45.99202" lon="3.55373">
        <ele>524.05756</ele>
        <time>2011-10-08T12:34:34Z</time>
      </trkpt>
      <trkpt lat="45.9922" lon="3.55378">
        <ele>524.2426</ele>
        <time>2011-10-08T12:34:29Z</time>
      </trkpt>
      <trkpt lat="45.9924" lon="3.55384">
        <ele>525.02246</ele>
        <time>2011-10-08T12:34:24Z</time>
      </trkpt>
      <trkpt lat="45.99261" lon="3.55393">
        <ele>526.60504</ele>
        <time>2011-10-08T12:34:19Z</time>
      </trkpt>
      <trkpt lat="45.99279" lon="3.55403">
        <ele>527.23914</ele>
        <time>2011-10-08T12:34:13Z</time>
      </trkpt>
      <trkpt lat="45.99295" lon="3.55421">
        <ele>528.0078</ele>
        <time>2011-10-08T12:34:08Z</time>
      </trkpt>
      <trkpt lat="45.99318" lon="3.55436">
        <ele>528.8148</ele>
        <time>2011-10-08T12:34:04Z</time>
      </trkpt>
      <trkpt lat="45.99337" lon="3.55451">
        <ele>529.93146</ele>
        <time>2011-10-08T12:34:01Z</time>
      </trkpt>
      <trkpt lat="45.99355" lon="3.55464">
        <ele>531.1004</ele>
        <time>2011-10-08T12:33:59Z</time>
      </trkpt>
      <trkpt lat="45.99372" lon="3.55481">
        <ele>531.95624</ele>
        <time>2011-10-08T12:33:57Z</time>
      </trkpt>
      <trkpt lat="45.99388" lon="3.55498">
        <ele>533.1445</ele>
        <time>2011-10-08T12:33:55Z</time>
      </trkpt>
      <trkpt lat="45.99405" lon="3.55513">
        <ele>534.0346</ele>
        <time>2011-10-08T12:33:53Z</time>
      </trkpt>
      <trkpt lat="45.99423" lon="3.55528">
        <ele>535.2837</ele>
        <time>2011-10-08T12:33:51Z</time>
      </trkpt>
      <trkpt lat="45.9944" lon="3.55541">
        <ele>536.72656</ele>
        <time>2011-10-08T12:33:49Z</time>
      </trkpt>
      <trkpt lat="45.99456" lon="3.55556">
        <ele>537.73615</ele>
        <time>2011-10-08T12:33:47Z</time>
      </trkpt>
      <trkpt lat="45.9948" lon="3.55575">
        <ele>539.00415</ele>
        <time>2011-10-08T12:33:44Z</time>
      </trkpt>
      <trkpt lat="45.99504" lon="3.55594">
        <ele>539.60236</ele>
        <time>2011-10-08T12:33:41Z</time>
      </trkpt>
      <trkpt lat="45.9952" lon="3.55607">
        <ele>540.07086</ele>
        <time>2011-10-08T12:33:39Z</time>
      </trkpt>
      <trkpt lat="45.99537" lon="3.5562">
        <ele>540.5705</ele>
        <time>2011-10-08T12:33:37Z</time>
      </trkpt>
      <trkpt lat="45.9956" lon="3.55635">
        <ele>541.35223</ele>
        <time>2011-10-08T12:33:34Z</time>
      </trkpt>
      <trkpt lat="45.9958" lon="3.55648">
        <ele>541.5015</ele>
        <time>2011-10-08T12:33:31Z</time>
      </trkpt>
      <trkpt lat="45.996" lon="3.55654">
        <ele>542.7802</ele>
        <time>2011-10-08T12:33:26Z</time>
      </trkpt>
      <trkpt lat="45.99604" lon="3.55682">
        <ele>543.1696</ele>
        <time>2011-10-08T12:33:20Z</time>
      </trkpt>
      <trkpt lat="45.99618" lon="3.55702">
        <ele>543.536</ele>
        <time>2011-10-08T12:33:16Z</time>
      </trkpt>
      <trkpt lat="45.99631" lon="3.55721">
        <ele>543.41516</ele>
        <time>2011-10-08T12:33:11Z</time>
      </trkpt>
      <trkpt lat="45.99645" lon="3.55742">
        <ele>542.89636</ele>
        <time>2011-10-08T12:33:05Z</time>
      </trkpt>
      <trkpt lat="45.99656" lon="3.55766">
        <ele>542.5632</ele>
        <time>2011-10-08T12:33:00Z</time>
      </trkpt>
      <trkpt lat="45.99666" lon="3.55792">
        <ele>541.9371</ele>
        <time>2011-10-08T12:32:55Z</time>
      </trkpt>
      <trkpt lat="45.99679" lon="3.55815">
        <ele>541.6465</ele>
        <time>2011-10-08T12:32:49Z</time>
      </trkpt>
      <trkpt lat="45.99696" lon="3.55835">
        <ele>542.6707</ele>
        <time>2011-10-08T12:32:44Z</time>
      </trkpt>
      <trkpt lat="45.99711" lon="3.55854">
        <ele>545.16925</ele>
        <time>2011-10-08T12:32:40Z</time>
      </trkpt>
      <trkpt lat="45.99727" lon="3.55875">
        <ele>545.9917</ele>
        <time>2011-10-08T12:32:36Z</time>
      </trkpt>
      <trkpt lat="45.99738" lon="3.55903">
        <ele>544.60345</ele>
        <time>2011-10-08T12:32:32Z</time>
      </trkpt>
      <trkpt lat="45.99748" lon="3.55933">
        <ele>540.5369</ele>
        <time>2011-10-08T12:32:28Z</time>
      </trkpt>
      <trkpt lat="45.99753" lon="3.55961">
        <ele>538.14136</ele>
        <time>2011-10-08T12:32:24Z</time>
      </trkpt>
      <trkpt lat="45.99756" lon="3.55989">
        <ele>537.0641</ele>
        <time>2011-10-08T12:32:20Z</time>
      </trkpt>
      <trkpt lat="45.99762" lon="3.56019">
        <ele>536.2166</ele>
        <time>2011-10-08T12:32:15Z</time>
      </trkpt>
      <trkpt lat="45.99771" lon="3.56045">
        <ele>535.8593</ele>
        <time>2011-10-08T12:32:10Z</time>
      </trkpt>
      <trkpt lat="45.9978" lon="3.56071">
        <ele>535.99976</ele>
        <time>2011-10-08T12:32:05Z</time>
      </trkpt>
      <trkpt lat="45.99788" lon="3.56094">
        <ele>533.72504</ele>
        <time>2011-10-08T12:30:50Z</time>
      </trkpt>
      <trkpt lat="45.99786" lon="3.56086">
        <ele>563.5048</ele>
        <time>2011-10-08T15:23:04Z</time>
      </trkpt>
      <trkpt lat="45.99794" lon="3.5606">
        <ele>560.8466</ele>
        <time>2011-10-08T15:23:12Z</time>
      </trkpt>
      <trkpt lat="45.99832" lon="3.56045">
        <ele>555.70764</ele>
        <time>2011-10-08T15:23:21Z</time>
      </trkpt>
      <trkpt lat="45.99849" lon="3.56036">
        <ele>551.47</ele>
        <time>2011-10-08T15:23:25Z</time>
      </trkpt>
      <trkpt lat="45.99868" lon="3.56026">
        <ele>546.93964</ele>
        <time>2011-10-08T15:23:30Z</time>
      </trkpt>
      <trkpt lat="45.99887" lon="3.56017">
        <ele>544.6836</ele>
        <time>2011-10-08T15:25:11Z</time>
      </trkpt>
      <trkpt lat="45.99892" lon="3.55991">
        <ele>544.9683</ele>
        <time>2011-10-08T15:25:19Z</time>
      </trkpt>
      <trkpt lat="45.99908" lon="3.55972">
        <ele>544.9958</ele>
        <time>2011-10-08T15:25:26Z</time>
      </trkpt>
      <trkpt lat="45.99924" lon="3.55946">
        <ele>544.99866</ele>
        <time>2011-10-08T15:25:30Z</time>
      </trkpt>
      <trkpt lat="45.99932" lon="3.55921">
        <ele>544.74945</ele>
        <time>2011-10-08T15:25:33Z</time>
      </trkpt>
      <trkpt lat="45.9994" lon="3.55895">
        <ele>544.06616</ele>
        <time>2011-10-08T15:25:36Z</time>
      </trkpt>
      <trkpt lat="45.99949" lon="3.55871">
        <ele>543.44977</ele>
        <time>2011-10-08T15:25:39Z</time>
      </trkpt>
      <trkpt lat="45.99977" lon="3.558">
        <ele>542.1191</ele>
        <time>2011-10-08T15:25:50Z</time>
      </trkpt>
      <trkpt lat="45.99995" lon="3.5579">
        <ele>542.02826</ele>
        <time>2011-10-08T15:25:55Z</time>
      </trkpt>
      <trkpt lat="46.00013" lon="3.55783">
        <ele>542.9027</ele>
        <time>2011-10-08T15:26:03Z</time>
      </trkpt>
      <trkpt lat="46.00031" lon="3.55781">
        <ele>542.02856</ele>
        <time>2011-10-08T15:26:15Z</time>
      </trkpt>
      <trkpt lat="46.0005" lon="3.55777">
        <ele>540.7543</ele>
        <time>2011-10-08T15:26:36Z</time>
      </trkpt>
      <trkpt lat="46.00035" lon="3.55757">
        <ele>531.9139</ele>
        <time>2011-10-08T15:27:22Z</time>
      </trkpt>
      <trkpt lat="46.00017" lon="3.55745">
        <ele>530.654</ele>
        <time>2011-10-08T15:27:30Z</time>
      </trkpt>
      <trkpt lat="45.99999" lon="3.55736">
        <ele>530.0873</ele>
        <time>2011-10-08T15:27:37Z</time>
      </trkpt>
      <trkpt lat="45.99984" lon="3.55715">
        <ele>529.43744</ele>
        <time>2011-10-08T15:27:43Z</time>
      </trkpt>
      <trkpt lat="45.99973" lon="3.55689">
        <ele>528.6663</ele>
        <time>2011-10-08T15:27:48Z</time>
      </trkpt>
      <trkpt lat="45.99972" lon="3.55661">
        <ele>527.435</ele>
        <time>2011-10-08T15:27:54Z</time>
      </trkpt>
      <trkpt lat="45.99978" lon="3.55633">
        <ele>525.8179</ele>
        <time>2011-10-08T15:28:00Z</time>
      </trkpt>
      <trkpt lat="45.99985" lon="3.55605">
        <ele>524.56744</ele>
        <time>2011-10-08T15:28:06Z</time>
      </trkpt>
      <trkpt lat="46" lon="3.55579">
        <ele>523.19714</ele>
        <time>2011-10-08T15:28:11Z</time>
      </trkpt>
      <trkpt lat="46.00016" lon="3.5556">
        <ele>519.41785</ele>
        <time>2011-10-08T15:28:15Z</time>
      </trkpt>
      <trkpt lat="46.00028" lon="3.55539">
        <ele>516.0609</ele>
        <time>2011-10-08T15:28:29Z</time>
      </trkpt>
      <trkpt lat="46.00011" lon="3.55524">
        <ele>515.43</ele>
        <time>2011-10-08T15:28:36Z</time>
      </trkpt>
      <trkpt lat="45.99995" lon="3.55506">
        <ele>515.07654</ele>
        <time>2011-10-08T15:28:42Z</time>
      </trkpt>
      <trkpt lat="45.99986" lon="3.55483">
        <ele>514.7682</ele>
        <time>2011-10-08T15:28:47Z</time>
      </trkpt>
      <trkpt lat="45.99983" lon="3.55455">
        <ele>513.4149</ele>
        <time>2011-10-08T15:28:51Z</time>
      </trkpt>
      <trkpt lat="45.99984" lon="3.55427">
        <ele>512.0102</ele>
        <time>2011-10-08T15:28:55Z</time>
      </trkpt>
      <trkpt lat="45.99991" lon="3.55397">
        <ele>511.31964</ele>
        <time>2011-10-08T15:28:59Z</time>
      </trkpt>
      <trkpt lat="46.00005" lon="3.55371">
        <ele>510.523</ele>
        <time>2011-10-08T15:29:03Z</time>
      </trkpt>
      <trkpt lat="46.00023" lon="3.55354">
        <ele>509.9155</ele>
        <time>2011-10-08T15:29:07Z</time>
      </trkpt>
      <trkpt lat="46.00043" lon="3.55337">
        <ele>509.28967</ele>
        <time>2011-10-08T15:29:11Z</time>
      </trkpt>
      <trkpt lat="46.00062" lon="3.5532">
        <ele>508.40805</ele>
        <time>2011-10-08T15:29:15Z</time>
      </trkpt>
      <trkpt lat="46.00081" lon="3.55309">
        <ele>507.44553</ele>
        <time>2011-10-08T15:29:19Z</time>
      </trkpt>
      <trkpt lat="46.00098" lon="3.553">
        <ele>507.14096</ele>
        <time>2011-10-08T15:29:23Z</time>
      </trkpt>
      <trkpt lat="46.00117" lon="3.55298">
        <ele>507.79614</ele>
        <time>2011-10-08T15:29:28Z</time>
      </trkpt>
      <trkpt lat="46.00138" lon="3.55296">
        <ele>508.74228</ele>
        <time>2011-10-08T15:29:36Z</time>
      </trkpt>
      <trkpt lat="46.00165" lon="3.55296">
        <ele>509.49994</ele>
        <time>2011-10-08T15:30:05Z</time>
      </trkpt>
      <trkpt lat="46.00184" lon="3.55303">
        <ele>512.2945</ele>
        <time>2011-10-08T15:30:13Z</time>
      </trkpt>
      <trkpt lat="46.00202" lon="3.55309">
        <ele>514.16534</ele>
        <time>2011-10-08T15:30:20Z</time>
      </trkpt>
      <trkpt lat="46.00226" lon="3.55309">
        <ele>516.8115</ele>
        <time>2011-10-08T15:30:30Z</time>
      </trkpt>
      <trkpt lat="46.00245" lon="3.55309">
        <ele>520.4475</ele>
        <time>2011-10-08T15:30:41Z</time>
      </trkpt>
      <trkpt lat="46.00263" lon="3.55311">
        <ele>523.0448</ele>
        <time>2011-10-08T15:30:49Z</time>
      </trkpt>
      <trkpt lat="46.00281" lon="3.55311">
        <ele>525.45184</ele>
        <time>2011-10-08T15:30:59Z</time>
      </trkpt>
      <trkpt lat="46.003" lon="3.55313">
        <ele>527.95575</ele>
        <time>2011-10-08T15:31:08Z</time>
      </trkpt>
      <trkpt lat="46.00319" lon="3.55315">
        <ele>531.24664</ele>
        <time>2011-10-08T15:31:17Z</time>
      </trkpt>
      <trkpt lat="46.00338" lon="3.55315">
        <ele>532.6621</ele>
        <time>2011-10-08T15:31:24Z</time>
      </trkpt>
      <trkpt lat="46.00356" lon="3.55311">
        <ele>532.9662</ele>
        <time>2011-10-08T15:31:32Z</time>
      </trkpt>
      <trkpt lat="46.00375" lon="3.55309">
        <ele>532.99664</ele>
        <time>2011-10-08T15:31:40Z</time>
      </trkpt>
      <trkpt lat="46.00394" lon="3.55305">
        <ele>532.4215</ele>
        <time>2011-10-08T15:31:48Z</time>
      </trkpt>
      <trkpt lat="46.00421" lon="3.55311">
        <ele>532.0317</ele>
        <time>2011-10-08T15:31:57Z</time>
      </trkpt>
      <trkpt lat="46.00438" lon="3.5532">
        <ele>532.0056</ele>
        <time>2011-10-08T15:32:03Z</time>
      </trkpt>
      <trkpt lat="46.00456" lon="3.55335">
        <ele>532.4385</ele>
        <time>2011-10-08T15:32:09Z</time>
      </trkpt>
      <trkpt lat="46.0047" lon="3.55358">
        <ele>532.9001</ele>
        <time>2011-10-08T15:32:15Z</time>
      </trkpt>
      <trkpt lat="46.00486" lon="3.55373">
        <ele>533.41974</ele>
        <time>2011-10-08T15:32:21Z</time>
      </trkpt>
      <trkpt lat="46.00507" lon="3.55386">
        <ele>534.5007</ele>
        <time>2011-10-08T15:32:28Z</time>
      </trkpt>
      <trkpt lat="46.00524" lon="3.55397">
        <ele>535.8151</ele>
        <time>2011-10-08T15:32:33Z</time>
      </trkpt>
      <trkpt lat="46.00541" lon="3.55412">
        <ele>537.36725</ele>
        <time>2011-10-08T15:32:39Z</time>
      </trkpt>
      <trkpt lat="46.00558" lon="3.55427">
        <ele>539.36017</ele>
        <time>2011-10-08T15:32:46Z</time>
      </trkpt>
      <trkpt lat="46.00573" lon="3.5541">
        <ele>541.03174</ele>
        <time>2011-10-08T15:32:51Z</time>
      </trkpt>
      <trkpt lat="46.00583" lon="3.55382">
        <ele>547.1286</ele>
        <time>2011-10-08T15:32:56Z</time>
      </trkpt>
      <trkpt lat="46.00595" lon="3.55356">
        <ele>551.75726</ele>
        <time>2011-10-08T15:33:02Z</time>
      </trkpt>
      <trkpt lat="46.0061" lon="3.55337">
        <ele>552.7788</ele>
        <time>2011-10-08T15:33:08Z</time>
      </trkpt>
      <trkpt lat="46.00629" lon="3.55337">
        <ele>553.8942</ele>
        <time>2011-10-08T15:33:14Z</time>
      </trkpt>
      <trkpt lat="46.00644" lon="3.55358">
        <ele>553.96265</ele>
        <time>2011-10-08T15:33:18Z</time>
      </trkpt>
      <trkpt lat="46.00652" lon="3.55384">
        <ele>551.703</ele>
        <time>2011-10-08T15:33:21Z</time>
      </trkpt>
      <trkpt lat="46.00654" lon="3.5541">
        <ele>549.4528</ele>
        <time>2011-10-08T15:33:24Z</time>
      </trkpt>
      <trkpt lat="46.00656" lon="3.5544">
        <ele>547.33856</ele>
        <time>2011-10-08T15:33:28Z</time>
      </trkpt>
      <trkpt lat="46.00663" lon="3.5547">
        <ele>545.8801</ele>
        <time>2011-10-08T15:33:33Z</time>
      </trkpt>
      <trkpt lat="46.00673" lon="3.55494">
        <ele>545.45886</ele>
        <time>2011-10-08T15:33:38Z</time>
      </trkpt>
      <trkpt lat="46.0068" lon="3.55519">
        <ele>545.8716</ele>
        <time>2011-10-08T15:33:43Z</time>
      </trkpt>
      <trkpt lat="46.00689" lon="3.55543">
        <ele>545.9772</ele>
        <time>2011-10-08T15:33:49Z</time>
      </trkpt>
      <trkpt lat="46.00697" lon="3.55569">
        <ele>548.73303</ele>
        <time>2011-10-08T15:36:50Z</time>
      </trkpt>
      <trkpt lat="46.00707" lon="3.55592">
        <ele>549.7627</ele>
        <time>2011-10-08T15:38:12Z</time>
      </trkpt>
      <trkpt lat="46.00721" lon="3.55609">
        <ele>550.20776</ele>
        <time>2011-10-08T15:38:18Z</time>
      </trkpt>
      <trkpt lat="46.00736" lon="3.55627">
        <ele>550.9207</ele>
        <time>2011-10-08T15:38:26Z</time>
      </trkpt>
      <trkpt lat="46.0075" lon="3.55644">
        <ele>551.8141</ele>
        <time>2011-10-08T15:38:34Z</time>
      </trkpt>
      <trkpt lat="46.00765" lon="3.55665">
        <ele>551.97516</ele>
        <time>2011-10-08T15:38:41Z</time>
      </trkpt>
      <trkpt lat="46.00778" lon="3.55685">
        <ele>552.75684</ele>
        <time>2011-10-08T15:38:46Z</time>
      </trkpt>
      <trkpt lat="46.00793" lon="3.55708">
        <ele>554.4579</ele>
        <time>2011-10-08T15:38:51Z</time>
      </trkpt>
      <trkpt lat="46.00806" lon="3.55732">
        <ele>557.5217</ele>
        <time>2011-10-08T15:38:56Z</time>
      </trkpt>
      <trkpt lat="46.00824" lon="3.55745">
        <ele>560.0955</ele>
        <time>2011-10-08T15:39:01Z</time>
      </trkpt>
      <trkpt lat="46.00845" lon="3.55751">
        <ele>560.839</ele>
        <time>2011-10-08T15:39:07Z</time>
      </trkpt>
      <trkpt lat="46.00864" lon="3.5576">
        <ele>560.9618</ele>
        <time>2011-10-08T15:39:12Z</time>
      </trkpt>
      <trkpt lat="46.00881" lon="3.5577">
        <ele>560.4128</ele>
        <time>2011-10-08T15:39:17Z</time>
      </trkpt>
      <trkpt lat="46.00899" lon="3.55788">
        <ele>560.0735</ele>
        <time>2011-10-08T15:39:23Z</time>
      </trkpt>
      <trkpt lat="46.00975" lon="3.55848">
        <ele>563.5</ele>
      </trkpt>
      <trkpt lat="46.01073" lon="3.5595">
        <ele>568.4</ele>
      </trkpt>
      <trkpt lat="46.01129" lon="3.5603">
        <ele>570.2</ele>
      </trkpt>
      <trkpt lat="46.01158" lon="3.56091">
        <ele>573.6</ele>
      </trkpt>
      <trkpt lat="46.01221" lon="3.56148">
        <ele>574.5</ele>
      </trkpt>
      <trkpt lat="46.01241" lon="3.56167">
        <ele>575.3</ele>
      </trkpt>
      <trkpt lat="46.01226" lon="3.56222">
        <ele>569.4</ele>
      </trkpt>
      <trkpt lat="46.01236" lon="3.56277">
        <ele>564.1</ele>
      </trkpt>
      <trkpt lat="46.01303" lon="3.56337">
        <ele>558.5</ele>
      </trkpt>
      <trkpt lat="46.01333" lon="3.56384">
        <ele>550.1</ele>
      </trkpt>
      <trkpt lat="46.01304" lon="3.56425">
        <ele>545.7</ele>
      </trkpt>
      <trkpt lat="46.01258" lon="3.56471">
        <ele>534.2</ele>
      </trkpt>
      <trkpt lat="46.01219" lon="3.56544">
        <ele>515.4</ele>
      </trkpt>
      <trkpt lat="46.01205" lon="3.56607">
        <ele>504.8</ele>
      </trkpt>
      <trkpt lat="46.01191" lon="3.56626">
        <ele>502</ele>
      </trkpt>
      <trkpt lat="46.01154" lon="3.5661">
        <ele>504.3</ele>
      </trkpt>
      <trkpt lat="46.01139" lon="3.56595">
        <ele>505.3</ele>
      </trkpt>
      <trkpt lat="46.01105" lon="3.56603">
        <ele>511.7</ele>
      </trkpt>
      <trkpt lat="46.01038" lon="3.56632">
        <ele>526.5</ele>
      </trkpt>
      <trkpt lat="46.0099" lon="3.56658">
        <ele>529.4</ele>
      </trkpt>
      <trkpt lat="46.00976" lon="3.56725">
        <ele>542.8</ele>
      </trkpt>
      <trkpt lat="46.00958" lon="3.56805">
        <ele>555</ele>
      </trkpt>
      <trkpt lat="46.00936" lon="3.56868">
        <ele>563.5</ele>
      </trkpt>
      <trkpt lat="46.00901" lon="3.56871">
        <ele>568.5</ele>
      </trkpt>
      <trkpt lat="46.00871" lon="3.569">
        <ele>577.4</ele>
      </trkpt>
      <trkpt lat="46.00857" lon="3.56936">
        <ele>585.3</ele>
      </trkpt>
      <trkpt lat="46.00904" lon="3.56986">
        <ele>593.2</ele>
      </trkpt>
      <trkpt lat="46.00902" lon="3.57007">
        <ele>598.5</ele>
      </trkpt>
      <trkpt lat="46.00848" lon="3.57044">
        <ele>600.2</ele>
      </trkpt>
      <trkpt lat="46.00763" lon="3.57094">
        <ele>598</ele>
      </trkpt>
      <trkpt lat="46.00763" lon="3.57098">
        <ele>598.8</ele>
      </trkpt>
      <trkpt lat="46.00725" lon="3.57086">
        <ele>599.1</ele>
      </trkpt>
      <trkpt lat="46.00661" lon="3.5705">
        <ele>601.4</ele>
      </trkpt>
      <trkpt lat="46.00633" lon="3.56985">
        <ele>604.6</ele>
      </trkpt>
      <trkpt lat="46.00602" lon="3.56924">
        <ele>603.8</ele>
      </trkpt>
      <trkpt lat="46.00524" lon="3.56958">
        <ele>616.1</ele>
      </trkpt>
      <trkpt lat="46.00436" lon="3.57">
        <ele>619.3</ele>
      </trkpt>
      <trkpt lat="46.0043" lon="3.57093">
        <ele>624.4</ele>
      </trkpt>
    </trkseg>
  </trk>
</gpx>